<?xml version="1.0" encoding="UTF-8" standalone="no" ?>
<gpx xmlns="http://www.topografix.com/GPX/1/1" xmlns:xsi="http://www.w3.org/2001/XMLSchema-instance" xsi:schemaLocation="http://www.topografix.com/GPX/1/1 http://www.topografix.com/GPX/1/1/gpx.xsd" version="1.1" creator="VisuGPX - https://www.visugpx.com">
  <metadata>
    <name>MF du Malpey au Mont Vinaigre et Aigre</name>
    <desc><![CDATA[De la Maison Forestière du Malpey au Mont Vinaigre, puis Belvédère de l\\\'Aigre]]></desc>
  </metadata>
  <trk>
    <name><![CDATA[Mont Vinaigre7:50]]></name>
    <trkseg>
      <trkpt lat="43.49648" lon="6.8016">
        <ele>326.5</ele>
        <time>2011-01-23T08:10:35Z</time>
      </trkpt>
      <trkpt lat="43.49648" lon="6.80159">
        <ele>326.02</ele>
        <time>2011-01-23T08:10:36Z</time>
      </trkpt>
      <trkpt lat="43.49646" lon="6.80159">
        <ele>328.91</ele>
        <time>2011-01-23T08:10:40Z</time>
      </trkpt>
      <trkpt lat="43.49647" lon="6.80162">
        <ele>327.95</ele>
        <time>2011-01-23T08:10:54Z</time>
      </trkpt>
      <trkpt lat="43.49643" lon="6.80167">
        <ele>328.43</ele>
        <time>2011-01-23T08:11:18Z</time>
      </trkpt>
      <trkpt lat="43.49641" lon="6.80167">
        <ele>323.62</ele>
        <time>2011-01-23T08:11:22Z</time>
      </trkpt>
      <trkpt lat="43.49641" lon="6.80167">
        <ele>328.43</ele>
        <time>2011-01-23T08:11:23Z</time>
      </trkpt>
      <trkpt lat="43.49638" lon="6.80168">
        <ele>328.43</ele>
        <time>2011-01-23T08:11:45Z</time>
      </trkpt>
      <trkpt lat="43.49641" lon="6.80168">
        <ele>328.91</ele>
        <time>2011-01-23T08:12:04Z</time>
      </trkpt>
      <trkpt lat="43.4964" lon="6.80171">
        <ele>330.35</ele>
        <time>2011-01-23T08:12:20Z</time>
      </trkpt>
      <trkpt lat="43.49632" lon="6.80178">
        <ele>331.79</ele>
        <time>2011-01-23T08:12:33Z</time>
      </trkpt>
      <trkpt lat="43.49627" lon="6.80182">
        <ele>333.71</ele>
        <time>2011-01-23T08:12:47Z</time>
      </trkpt>
      <trkpt lat="43.49627" lon="6.80182">
        <ele>334.68</ele>
        <time>2011-01-23T08:13:15Z</time>
      </trkpt>
      <trkpt lat="43.49627" lon="6.80183">
        <ele>334.68</ele>
        <time>2011-01-23T08:13:40Z</time>
      </trkpt>
      <trkpt lat="43.49634" lon="6.80188">
        <ele>336.6</ele>
        <time>2011-01-23T08:13:57Z</time>
      </trkpt>
      <trkpt lat="43.49638" lon="6.80196">
        <ele>339.96</ele>
        <time>2011-01-23T08:14:05Z</time>
      </trkpt>
      <trkpt lat="43.49637" lon="6.80197">
        <ele>342.85</ele>
        <time>2011-01-23T08:14:06Z</time>
      </trkpt>
      <trkpt lat="43.49637" lon="6.80199">
        <ele>338.52</ele>
        <time>2011-01-23T08:14:07Z</time>
      </trkpt>
      <trkpt lat="43.49642" lon="6.80207">
        <ele>339.96</ele>
        <time>2011-01-23T08:14:16Z</time>
      </trkpt>
      <trkpt lat="43.49649" lon="6.80216">
        <ele>341.89</ele>
        <time>2011-01-23T08:14:27Z</time>
      </trkpt>
      <trkpt lat="43.49659" lon="6.80215">
        <ele>344.29</ele>
        <time>2011-01-23T08:14:40Z</time>
      </trkpt>
      <trkpt lat="43.49661" lon="6.80221">
        <ele>345.25</ele>
        <time>2011-01-23T08:14:48Z</time>
      </trkpt>
      <trkpt lat="43.4966" lon="6.80227">
        <ele>346.21</ele>
        <time>2011-01-23T08:14:52Z</time>
      </trkpt>
      <trkpt lat="43.49663" lon="6.80249">
        <ele>349.1</ele>
        <time>2011-01-23T08:15:08Z</time>
      </trkpt>
      <trkpt lat="43.49665" lon="6.80263">
        <ele>349.58</ele>
        <time>2011-01-23T08:15:22Z</time>
      </trkpt>
      <trkpt lat="43.49667" lon="6.80271">
        <ele>351.02</ele>
        <time>2011-01-23T08:15:30Z</time>
      </trkpt>
      <trkpt lat="43.49671" lon="6.80284">
        <ele>351.98</ele>
        <time>2011-01-23T08:15:42Z</time>
      </trkpt>
      <trkpt lat="43.4968" lon="6.80299">
        <ele>353.9</ele>
        <time>2011-01-23T08:15:57Z</time>
      </trkpt>
      <trkpt lat="43.49682" lon="6.80314">
        <ele>355.83</ele>
        <time>2011-01-23T08:16:13Z</time>
      </trkpt>
      <trkpt lat="43.4968" lon="6.8032">
        <ele>356.31</ele>
        <time>2011-01-23T08:16:25Z</time>
      </trkpt>
      <trkpt lat="43.4968" lon="6.80326">
        <ele>356.79</ele>
        <time>2011-01-23T08:16:29Z</time>
      </trkpt>
      <trkpt lat="43.49677" lon="6.80342">
        <ele>357.75</ele>
        <time>2011-01-23T08:16:42Z</time>
      </trkpt>
      <trkpt lat="43.49678" lon="6.80347">
        <ele>358.23</ele>
        <time>2011-01-23T08:16:45Z</time>
      </trkpt>
      <trkpt lat="43.49688" lon="6.80365">
        <ele>359.67</ele>
        <time>2011-01-23T08:17:00Z</time>
      </trkpt>
      <trkpt lat="43.4969" lon="6.80368">
        <ele>359.67</ele>
        <time>2011-01-23T08:17:03Z</time>
      </trkpt>
      <trkpt lat="43.49693" lon="6.80371">
        <ele>360.63</ele>
        <time>2011-01-23T08:17:07Z</time>
      </trkpt>
      <trkpt lat="43.49697" lon="6.80378">
        <ele>360.63</ele>
        <time>2011-01-23T08:17:13Z</time>
      </trkpt>
      <trkpt lat="43.49701" lon="6.8038">
        <ele>362.07</ele>
        <time>2011-01-23T08:17:17Z</time>
      </trkpt>
      <trkpt lat="43.49712" lon="6.80394">
        <ele>362.07</ele>
        <time>2011-01-23T08:17:31Z</time>
      </trkpt>
      <trkpt lat="43.49715" lon="6.80399">
        <ele>362.07</ele>
        <time>2011-01-23T08:17:35Z</time>
      </trkpt>
      <trkpt lat="43.49725" lon="6.80412">
        <ele>362.55</ele>
        <time>2011-01-23T08:17:50Z</time>
      </trkpt>
      <trkpt lat="43.49729" lon="6.80418">
        <ele>362.55</ele>
        <time>2011-01-23T08:18:02Z</time>
      </trkpt>
      <trkpt lat="43.49738" lon="6.80435">
        <ele>363.52</ele>
        <time>2011-01-23T08:18:19Z</time>
      </trkpt>
      <trkpt lat="43.49746" lon="6.80455">
        <ele>363.52</ele>
        <time>2011-01-23T08:18:33Z</time>
      </trkpt>
      <trkpt lat="43.49752" lon="6.80464">
        <ele>364.48</ele>
        <time>2011-01-23T08:18:41Z</time>
      </trkpt>
      <trkpt lat="43.49754" lon="6.80471">
        <ele>364.48</ele>
        <time>2011-01-23T08:18:45Z</time>
      </trkpt>
      <trkpt lat="43.49761" lon="6.80496">
        <ele>365.44</ele>
        <time>2011-01-23T08:19:02Z</time>
      </trkpt>
      <trkpt lat="43.49762" lon="6.80504">
        <ele>365.44</ele>
        <time>2011-01-23T08:19:07Z</time>
      </trkpt>
      <trkpt lat="43.49768" lon="6.80532">
        <ele>364.96</ele>
        <time>2011-01-23T08:19:24Z</time>
      </trkpt>
      <trkpt lat="43.49771" lon="6.80548">
        <ele>363.52</ele>
        <time>2011-01-23T08:19:39Z</time>
      </trkpt>
      <trkpt lat="43.49772" lon="6.80551">
        <ele>362.55</ele>
        <time>2011-01-23T08:19:44Z</time>
      </trkpt>
      <trkpt lat="43.4977" lon="6.80559">
        <ele>361.59</ele>
        <time>2011-01-23T08:19:48Z</time>
      </trkpt>
      <trkpt lat="43.49765" lon="6.80581">
        <ele>360.63</ele>
        <time>2011-01-23T08:20:06Z</time>
      </trkpt>
      <trkpt lat="43.49773" lon="6.80603">
        <ele>360.15</ele>
        <time>2011-01-23T08:20:21Z</time>
      </trkpt>
      <trkpt lat="43.49778" lon="6.80626">
        <ele>359.19</ele>
        <time>2011-01-23T08:20:35Z</time>
      </trkpt>
      <trkpt lat="43.49777" lon="6.80643">
        <ele>359.19</ele>
        <time>2011-01-23T08:20:49Z</time>
      </trkpt>
      <trkpt lat="43.49781" lon="6.80666">
        <ele>360.15</ele>
        <time>2011-01-23T08:21:04Z</time>
      </trkpt>
      <trkpt lat="43.49781" lon="6.80667">
        <ele>356.79</ele>
        <time>2011-01-23T08:21:05Z</time>
      </trkpt>
      <trkpt lat="43.49783" lon="6.80672">
        <ele>359.67</ele>
        <time>2011-01-23T08:21:08Z</time>
      </trkpt>
      <trkpt lat="43.49793" lon="6.80687">
        <ele>359.67</ele>
        <time>2011-01-23T08:21:21Z</time>
      </trkpt>
      <trkpt lat="43.49804" lon="6.80705">
        <ele>359.67</ele>
        <time>2011-01-23T08:21:36Z</time>
      </trkpt>
      <trkpt lat="43.49812" lon="6.80722">
        <ele>360.63</ele>
        <time>2011-01-23T08:21:49Z</time>
      </trkpt>
      <trkpt lat="43.49813" lon="6.80724">
        <ele>360.63</ele>
        <time>2011-01-23T08:21:51Z</time>
      </trkpt>
      <trkpt lat="43.49817" lon="6.8073">
        <ele>360.63</ele>
        <time>2011-01-23T08:21:56Z</time>
      </trkpt>
      <trkpt lat="43.4982" lon="6.80734">
        <ele>360.63</ele>
        <time>2011-01-23T08:22:00Z</time>
      </trkpt>
      <trkpt lat="43.49827" lon="6.80749">
        <ele>361.11</ele>
        <time>2011-01-23T08:22:12Z</time>
      </trkpt>
      <trkpt lat="43.49828" lon="6.80752">
        <ele>361.11</ele>
        <time>2011-01-23T08:22:14Z</time>
      </trkpt>
      <trkpt lat="43.49839" lon="6.80767">
        <ele>360.63</ele>
        <time>2011-01-23T08:22:28Z</time>
      </trkpt>
      <trkpt lat="43.49847" lon="6.80786">
        <ele>362.07</ele>
        <time>2011-01-23T08:22:43Z</time>
      </trkpt>
      <trkpt lat="43.49855" lon="6.80805">
        <ele>363.04</ele>
        <time>2011-01-23T08:22:58Z</time>
      </trkpt>
      <trkpt lat="43.4986" lon="6.80814">
        <ele>363.52</ele>
        <time>2011-01-23T08:23:05Z</time>
      </trkpt>
      <trkpt lat="43.49863" lon="6.80819">
        <ele>364</ele>
        <time>2011-01-23T08:23:09Z</time>
      </trkpt>
      <trkpt lat="43.49872" lon="6.8083">
        <ele>364</ele>
        <time>2011-01-23T08:23:19Z</time>
      </trkpt>
      <trkpt lat="43.49883" lon="6.80847">
        <ele>364.96</ele>
        <time>2011-01-23T08:23:34Z</time>
      </trkpt>
      <trkpt lat="43.49892" lon="6.80868">
        <ele>365.92</ele>
        <time>2011-01-23T08:23:51Z</time>
      </trkpt>
      <trkpt lat="43.49892" lon="6.80869">
        <ele>365.92</ele>
        <time>2011-01-23T08:23:52Z</time>
      </trkpt>
      <trkpt lat="43.49898" lon="6.80877">
        <ele>366.88</ele>
        <time>2011-01-23T08:23:59Z</time>
      </trkpt>
      <trkpt lat="43.49908" lon="6.80891">
        <ele>367.84</ele>
        <time>2011-01-23T08:24:13Z</time>
      </trkpt>
      <trkpt lat="43.49916" lon="6.80909">
        <ele>369.28</ele>
        <time>2011-01-23T08:24:28Z</time>
      </trkpt>
      <trkpt lat="43.49917" lon="6.80911">
        <ele>369.76</ele>
        <time>2011-01-23T08:24:30Z</time>
      </trkpt>
      <trkpt lat="43.49917" lon="6.80913">
        <ele>369.76</ele>
        <time>2011-01-23T08:24:32Z</time>
      </trkpt>
      <trkpt lat="43.4992" lon="6.80928">
        <ele>371.21</ele>
        <time>2011-01-23T08:24:41Z</time>
      </trkpt>
      <trkpt lat="43.49922" lon="6.80958">
        <ele>371.21</ele>
        <time>2011-01-23T08:24:58Z</time>
      </trkpt>
      <trkpt lat="43.49928" lon="6.80978">
        <ele>372.65</ele>
        <time>2011-01-23T08:25:12Z</time>
      </trkpt>
      <trkpt lat="43.49943" lon="6.8099">
        <ele>374.09</ele>
        <time>2011-01-23T08:25:27Z</time>
      </trkpt>
      <trkpt lat="43.49959" lon="6.81002">
        <ele>375.53</ele>
        <time>2011-01-23T08:25:43Z</time>
      </trkpt>
      <trkpt lat="43.49971" lon="6.8101">
        <ele>376.49</ele>
        <time>2011-01-23T08:25:54Z</time>
      </trkpt>
      <trkpt lat="43.49979" lon="6.81024">
        <ele>378.9</ele>
        <time>2011-01-23T08:26:11Z</time>
      </trkpt>
      <trkpt lat="43.49989" lon="6.81034">
        <ele>380.82</ele>
        <time>2011-01-23T08:26:25Z</time>
      </trkpt>
      <trkpt lat="43.50002" lon="6.81041">
        <ele>383.22</ele>
        <time>2011-01-23T08:26:41Z</time>
      </trkpt>
      <trkpt lat="43.50011" lon="6.81045">
        <ele>385.15</ele>
        <time>2011-01-23T08:26:55Z</time>
      </trkpt>
      <trkpt lat="43.50023" lon="6.81051">
        <ele>387.07</ele>
        <time>2011-01-23T08:27:10Z</time>
      </trkpt>
      <trkpt lat="43.50031" lon="6.81054">
        <ele>388.99</ele>
        <time>2011-01-23T08:27:25Z</time>
      </trkpt>
      <trkpt lat="43.50044" lon="6.81057">
        <ele>390.91</ele>
        <time>2011-01-23T08:27:42Z</time>
      </trkpt>
      <trkpt lat="43.50056" lon="6.81054">
        <ele>392.84</ele>
        <time>2011-01-23T08:27:59Z</time>
      </trkpt>
      <trkpt lat="43.50069" lon="6.81052">
        <ele>394.76</ele>
        <time>2011-01-23T08:28:14Z</time>
      </trkpt>
      <trkpt lat="43.50074" lon="6.81049">
        <ele>397.16</ele>
        <time>2011-01-23T08:28:31Z</time>
      </trkpt>
      <trkpt lat="43.50077" lon="6.81049">
        <ele>397.16</ele>
        <time>2011-01-23T08:28:33Z</time>
      </trkpt>
      <trkpt lat="43.50083" lon="6.81047">
        <ele>398.12</ele>
        <time>2011-01-23T08:28:41Z</time>
      </trkpt>
      <trkpt lat="43.50106" lon="6.81043">
        <ele>400.05</ele>
        <time>2011-01-23T08:28:56Z</time>
      </trkpt>
      <trkpt lat="43.50116" lon="6.81038">
        <ele>401.49</ele>
        <time>2011-01-23T08:29:09Z</time>
      </trkpt>
      <trkpt lat="43.50124" lon="6.81032">
        <ele>402.93</ele>
        <time>2011-01-23T08:29:24Z</time>
      </trkpt>
      <trkpt lat="43.50125" lon="6.81032">
        <ele>402.93</ele>
        <time>2011-01-23T08:29:25Z</time>
      </trkpt>
      <trkpt lat="43.50128" lon="6.8103">
        <ele>403.89</ele>
        <time>2011-01-23T08:29:28Z</time>
      </trkpt>
      <trkpt lat="43.50138" lon="6.81026">
        <ele>405.33</ele>
        <time>2011-01-23T08:29:42Z</time>
      </trkpt>
      <trkpt lat="43.50146" lon="6.81025">
        <ele>406.77</ele>
        <time>2011-01-23T08:29:52Z</time>
      </trkpt>
      <trkpt lat="43.50158" lon="6.81021">
        <ele>408.7</ele>
        <time>2011-01-23T08:30:08Z</time>
      </trkpt>
      <trkpt lat="43.5017" lon="6.81018">
        <ele>410.14</ele>
        <time>2011-01-23T08:30:23Z</time>
      </trkpt>
      <trkpt lat="43.50184" lon="6.81016">
        <ele>412.06</ele>
        <time>2011-01-23T08:30:38Z</time>
      </trkpt>
      <trkpt lat="43.50197" lon="6.81013">
        <ele>414.47</ele>
        <time>2011-01-23T08:30:53Z</time>
      </trkpt>
      <trkpt lat="43.50198" lon="6.81013">
        <ele>414.95</ele>
        <time>2011-01-23T08:30:54Z</time>
      </trkpt>
      <trkpt lat="43.50203" lon="6.81013">
        <ele>414.95</ele>
        <time>2011-01-23T08:30:58Z</time>
      </trkpt>
      <trkpt lat="43.50213" lon="6.81011">
        <ele>416.87</ele>
        <time>2011-01-23T08:31:12Z</time>
      </trkpt>
      <trkpt lat="43.50221" lon="6.81009">
        <ele>417.35</ele>
        <time>2011-01-23T08:31:20Z</time>
      </trkpt>
      <trkpt lat="43.50224" lon="6.81008">
        <ele>418.31</ele>
        <time>2011-01-23T08:31:24Z</time>
      </trkpt>
      <trkpt lat="43.50236" lon="6.81007">
        <ele>420.71</ele>
        <time>2011-01-23T08:31:41Z</time>
      </trkpt>
      <trkpt lat="43.50246" lon="6.81004">
        <ele>422.16</ele>
        <time>2011-01-23T08:31:56Z</time>
      </trkpt>
      <trkpt lat="43.50256" lon="6.81001">
        <ele>423.6</ele>
        <time>2011-01-23T08:32:08Z</time>
      </trkpt>
      <trkpt lat="43.50267" lon="6.80998">
        <ele>425.04</ele>
        <time>2011-01-23T08:32:22Z</time>
      </trkpt>
      <trkpt lat="43.5027" lon="6.80998">
        <ele>426</ele>
        <time>2011-01-23T08:32:24Z</time>
      </trkpt>
      <trkpt lat="43.50283" lon="6.80997">
        <ele>426.96</ele>
        <time>2011-01-23T08:32:40Z</time>
      </trkpt>
      <trkpt lat="43.50293" lon="6.80996">
        <ele>429.37</ele>
        <time>2011-01-23T08:32:55Z</time>
      </trkpt>
      <trkpt lat="43.50305" lon="6.80996">
        <ele>432.25</ele>
        <time>2011-01-23T08:33:09Z</time>
      </trkpt>
      <trkpt lat="43.50317" lon="6.80998">
        <ele>433.69</ele>
        <time>2011-01-23T08:33:24Z</time>
      </trkpt>
      <trkpt lat="43.50332" lon="6.81002">
        <ele>436.1</ele>
        <time>2011-01-23T08:33:42Z</time>
      </trkpt>
      <trkpt lat="43.50342" lon="6.81006">
        <ele>438.5</ele>
        <time>2011-01-23T08:33:57Z</time>
      </trkpt>
      <trkpt lat="43.50353" lon="6.81014">
        <ele>440.42</ele>
        <time>2011-01-23T08:34:13Z</time>
      </trkpt>
      <trkpt lat="43.5036" lon="6.81021">
        <ele>441.86</ele>
        <time>2011-01-23T08:34:24Z</time>
      </trkpt>
      <trkpt lat="43.50371" lon="6.81031">
        <ele>444.27</ele>
        <time>2011-01-23T08:34:40Z</time>
      </trkpt>
      <trkpt lat="43.50378" lon="6.81042">
        <ele>446.19</ele>
        <time>2011-01-23T08:34:55Z</time>
      </trkpt>
      <trkpt lat="43.50383" lon="6.81047">
        <ele>447.15</ele>
        <time>2011-01-23T08:35:12Z</time>
      </trkpt>
      <trkpt lat="43.50383" lon="6.81047">
        <ele>447.63</ele>
        <time>2011-01-23T08:35:37Z</time>
      </trkpt>
      <trkpt lat="43.50388" lon="6.8106">
        <ele>449.07</ele>
        <time>2011-01-23T08:35:50Z</time>
      </trkpt>
      <trkpt lat="43.50391" lon="6.81067">
        <ele>450.03</ele>
        <time>2011-01-23T08:36:03Z</time>
      </trkpt>
      <trkpt lat="43.50391" lon="6.81067">
        <ele>450.03</ele>
        <time>2011-01-23T08:36:23Z</time>
      </trkpt>
      <trkpt lat="43.50393" lon="6.81082">
        <ele>451.96</ele>
        <time>2011-01-23T08:36:36Z</time>
      </trkpt>
      <trkpt lat="43.50397" lon="6.81097">
        <ele>454.36</ele>
        <time>2011-01-23T08:36:51Z</time>
      </trkpt>
      <trkpt lat="43.504" lon="6.81113">
        <ele>456.76</ele>
        <time>2011-01-23T08:37:04Z</time>
      </trkpt>
      <trkpt lat="43.50399" lon="6.81126">
        <ele>458.21</ele>
        <time>2011-01-23T08:37:16Z</time>
      </trkpt>
      <trkpt lat="43.50397" lon="6.81141">
        <ele>460.13</ele>
        <time>2011-01-23T08:37:30Z</time>
      </trkpt>
      <trkpt lat="43.50394" lon="6.81152">
        <ele>462.05</ele>
        <time>2011-01-23T08:37:41Z</time>
      </trkpt>
      <trkpt lat="43.50395" lon="6.81162">
        <ele>461.57</ele>
        <time>2011-01-23T08:37:48Z</time>
      </trkpt>
      <trkpt lat="43.50392" lon="6.81171">
        <ele>464.45</ele>
        <time>2011-01-23T08:38:00Z</time>
      </trkpt>
      <trkpt lat="43.5039" lon="6.81185">
        <ele>464.93</ele>
        <time>2011-01-23T08:38:13Z</time>
      </trkpt>
      <trkpt lat="43.5039" lon="6.81194">
        <ele>467.82</ele>
        <time>2011-01-23T08:38:26Z</time>
      </trkpt>
      <trkpt lat="43.50389" lon="6.81204">
        <ele>469.26</ele>
        <time>2011-01-23T08:38:33Z</time>
      </trkpt>
      <trkpt lat="43.50388" lon="6.8122">
        <ele>471.18</ele>
        <time>2011-01-23T08:38:48Z</time>
      </trkpt>
      <trkpt lat="43.50386" lon="6.81229">
        <ele>472.14</ele>
        <time>2011-01-23T08:39:01Z</time>
      </trkpt>
      <trkpt lat="43.50385" lon="6.81222">
        <ele>474.07</ele>
        <time>2011-01-23T08:39:11Z</time>
      </trkpt>
      <trkpt lat="43.50379" lon="6.81202">
        <ele>476.47</ele>
        <time>2011-01-23T08:39:28Z</time>
      </trkpt>
      <trkpt lat="43.50374" lon="6.81189">
        <ele>478.39</ele>
        <time>2011-01-23T08:39:43Z</time>
      </trkpt>
      <trkpt lat="43.5037" lon="6.81169">
        <ele>480.8</ele>
        <time>2011-01-23T08:40:00Z</time>
      </trkpt>
      <trkpt lat="43.50369" lon="6.81167">
        <ele>480.8</ele>
        <time>2011-01-23T08:40:02Z</time>
      </trkpt>
      <trkpt lat="43.50364" lon="6.81151">
        <ele>483.2</ele>
        <time>2011-01-23T08:40:20Z</time>
      </trkpt>
      <trkpt lat="43.50359" lon="6.81137">
        <ele>485.12</ele>
        <time>2011-01-23T08:40:35Z</time>
      </trkpt>
      <trkpt lat="43.50351" lon="6.81124">
        <ele>488.01</ele>
        <time>2011-01-23T08:40:52Z</time>
      </trkpt>
      <trkpt lat="43.50339" lon="6.81118">
        <ele>488.97</ele>
        <time>2011-01-23T08:41:07Z</time>
      </trkpt>
      <trkpt lat="43.50331" lon="6.81116">
        <ele>490.89</ele>
        <time>2011-01-23T08:41:21Z</time>
      </trkpt>
      <trkpt lat="43.5032" lon="6.81122">
        <ele>492.81</ele>
        <time>2011-01-23T08:41:35Z</time>
      </trkpt>
      <trkpt lat="43.50319" lon="6.81123">
        <ele>493.29</ele>
        <time>2011-01-23T08:41:54Z</time>
      </trkpt>
      <trkpt lat="43.50319" lon="6.81123">
        <ele>493.77</ele>
        <time>2011-01-23T08:42:15Z</time>
      </trkpt>
      <trkpt lat="43.50319" lon="6.81123">
        <ele>493.77</ele>
        <time>2011-01-23T08:42:42Z</time>
      </trkpt>
      <trkpt lat="43.50319" lon="6.81123">
        <ele>493.77</ele>
        <time>2011-01-23T08:43:01Z</time>
      </trkpt>
      <trkpt lat="43.50319" lon="6.81122">
        <ele>493.77</ele>
        <time>2011-01-23T08:43:23Z</time>
      </trkpt>
      <trkpt lat="43.50319" lon="6.81122">
        <ele>494.26</ele>
        <time>2011-01-23T08:43:45Z</time>
      </trkpt>
      <trkpt lat="43.50315" lon="6.81129">
        <ele>494.26</ele>
        <time>2011-01-23T08:44:06Z</time>
      </trkpt>
      <trkpt lat="43.50311" lon="6.8114">
        <ele>496.66</ele>
        <time>2011-01-23T08:44:19Z</time>
      </trkpt>
      <trkpt lat="43.50302" lon="6.8115">
        <ele>498.58</ele>
        <time>2011-01-23T08:44:33Z</time>
      </trkpt>
      <trkpt lat="43.50294" lon="6.81161">
        <ele>500.5</ele>
        <time>2011-01-23T08:44:47Z</time>
      </trkpt>
      <trkpt lat="43.50293" lon="6.81164">
        <ele>500.98</ele>
        <time>2011-01-23T08:44:49Z</time>
      </trkpt>
      <trkpt lat="43.50289" lon="6.81177">
        <ele>502.91</ele>
        <time>2011-01-23T08:45:03Z</time>
      </trkpt>
      <trkpt lat="43.50282" lon="6.81188">
        <ele>504.83</ele>
        <time>2011-01-23T08:45:17Z</time>
      </trkpt>
      <trkpt lat="43.50275" lon="6.812">
        <ele>507.71</ele>
        <time>2011-01-23T08:45:32Z</time>
      </trkpt>
      <trkpt lat="43.50268" lon="6.81212">
        <ele>509.16</ele>
        <time>2011-01-23T08:45:47Z</time>
      </trkpt>
      <trkpt lat="43.50266" lon="6.81222">
        <ele>510.6</ele>
        <time>2011-01-23T08:46:00Z</time>
      </trkpt>
      <trkpt lat="43.50268" lon="6.81235">
        <ele>512.52</ele>
        <time>2011-01-23T08:46:14Z</time>
      </trkpt>
      <trkpt lat="43.50267" lon="6.81248">
        <ele>513.96</ele>
        <time>2011-01-23T08:46:28Z</time>
      </trkpt>
      <trkpt lat="43.50266" lon="6.81251">
        <ele>514.44</ele>
        <time>2011-01-23T08:46:31Z</time>
      </trkpt>
      <trkpt lat="43.50263" lon="6.81263">
        <ele>516.37</ele>
        <time>2011-01-23T08:46:45Z</time>
      </trkpt>
      <trkpt lat="43.50262" lon="6.81269">
        <ele>516.85</ele>
        <time>2011-01-23T08:46:52Z</time>
      </trkpt>
      <trkpt lat="43.50261" lon="6.81278">
        <ele>518.29</ele>
        <time>2011-01-23T08:47:00Z</time>
      </trkpt>
      <trkpt lat="43.50257" lon="6.81287">
        <ele>520.21</ele>
        <time>2011-01-23T08:47:13Z</time>
      </trkpt>
      <trkpt lat="43.50256" lon="6.81299">
        <ele>521.17</ele>
        <time>2011-01-23T08:47:26Z</time>
      </trkpt>
      <trkpt lat="43.50255" lon="6.81311">
        <ele>522.13</ele>
        <time>2011-01-23T08:47:37Z</time>
      </trkpt>
      <trkpt lat="43.50257" lon="6.81321">
        <ele>524.54</ele>
        <time>2011-01-23T08:47:49Z</time>
      </trkpt>
      <trkpt lat="43.50258" lon="6.81321">
        <ele>524.06</ele>
        <time>2011-01-23T08:47:50Z</time>
      </trkpt>
      <trkpt lat="43.50268" lon="6.81334">
        <ele>525.5</ele>
        <time>2011-01-23T08:48:04Z</time>
      </trkpt>
      <trkpt lat="43.50271" lon="6.8135">
        <ele>526.94</ele>
        <time>2011-01-23T08:48:19Z</time>
      </trkpt>
      <trkpt lat="43.50272" lon="6.81351">
        <ele>527.42</ele>
        <time>2011-01-23T08:48:20Z</time>
      </trkpt>
      <trkpt lat="43.50275" lon="6.81361">
        <ele>528.38</ele>
        <time>2011-01-23T08:48:29Z</time>
      </trkpt>
      <trkpt lat="43.50279" lon="6.81367">
        <ele>529.34</ele>
        <time>2011-01-23T08:48:36Z</time>
      </trkpt>
      <trkpt lat="43.50282" lon="6.81373">
        <ele>529.82</ele>
        <time>2011-01-23T08:48:42Z</time>
      </trkpt>
      <trkpt lat="43.50286" lon="6.8138">
        <ele>530.79</ele>
        <time>2011-01-23T08:48:49Z</time>
      </trkpt>
      <trkpt lat="43.50287" lon="6.81388">
        <ele>531.75</ele>
        <time>2011-01-23T08:48:55Z</time>
      </trkpt>
      <trkpt lat="43.50291" lon="6.81402">
        <ele>533.67</ele>
        <time>2011-01-23T08:49:09Z</time>
      </trkpt>
      <trkpt lat="43.50295" lon="6.81412">
        <ele>534.63</ele>
        <time>2011-01-23T08:49:21Z</time>
      </trkpt>
      <trkpt lat="43.50295" lon="6.81415">
        <ele>535.11</ele>
        <time>2011-01-23T08:49:24Z</time>
      </trkpt>
      <trkpt lat="43.50298" lon="6.81425">
        <ele>535.59</ele>
        <time>2011-01-23T08:49:34Z</time>
      </trkpt>
      <trkpt lat="43.50297" lon="6.81434">
        <ele>536.55</ele>
        <time>2011-01-23T08:49:44Z</time>
      </trkpt>
      <trkpt lat="43.50298" lon="6.81445">
        <ele>537.99</ele>
        <time>2011-01-23T08:49:55Z</time>
      </trkpt>
      <trkpt lat="43.503" lon="6.81449">
        <ele>538.48</ele>
        <time>2011-01-23T08:49:59Z</time>
      </trkpt>
      <trkpt lat="43.50297" lon="6.81465">
        <ele>540.88</ele>
        <time>2011-01-23T08:50:14Z</time>
      </trkpt>
      <trkpt lat="43.50293" lon="6.8148">
        <ele>542.32</ele>
        <time>2011-01-23T08:50:29Z</time>
      </trkpt>
      <trkpt lat="43.50285" lon="6.81488">
        <ele>544.24</ele>
        <time>2011-01-23T08:50:43Z</time>
      </trkpt>
      <trkpt lat="43.50279" lon="6.81498">
        <ele>545.2</ele>
        <time>2011-01-23T08:50:55Z</time>
      </trkpt>
      <trkpt lat="43.50274" lon="6.81511">
        <ele>546.65</ele>
        <time>2011-01-23T08:51:11Z</time>
      </trkpt>
      <trkpt lat="43.50274" lon="6.81512">
        <ele>546.65</ele>
        <time>2011-01-23T08:51:12Z</time>
      </trkpt>
      <trkpt lat="43.50269" lon="6.81524">
        <ele>548.57</ele>
        <time>2011-01-23T08:51:25Z</time>
      </trkpt>
      <trkpt lat="43.50267" lon="6.81538">
        <ele>549.05</ele>
        <time>2011-01-23T08:51:40Z</time>
      </trkpt>
      <trkpt lat="43.50266" lon="6.8154">
        <ele>550.01</ele>
        <time>2011-01-23T08:51:42Z</time>
      </trkpt>
      <trkpt lat="43.50266" lon="6.81546">
        <ele>550.49</ele>
        <time>2011-01-23T08:51:57Z</time>
      </trkpt>
      <trkpt lat="43.50265" lon="6.81547">
        <ele>550.49</ele>
        <time>2011-01-23T08:52:14Z</time>
      </trkpt>
      <trkpt lat="43.50267" lon="6.81546">
        <ele>550.49</ele>
        <time>2011-01-23T08:52:34Z</time>
      </trkpt>
      <trkpt lat="43.50271" lon="6.81546">
        <ele>550.49</ele>
        <time>2011-01-23T08:52:41Z</time>
      </trkpt>
      <trkpt lat="43.50273" lon="6.81545">
        <ele>551.45</ele>
        <time>2011-01-23T08:52:44Z</time>
      </trkpt>
      <trkpt lat="43.50286" lon="6.81545">
        <ele>551.93</ele>
        <time>2011-01-23T08:52:58Z</time>
      </trkpt>
      <trkpt lat="43.50295" lon="6.81552">
        <ele>553.38</ele>
        <time>2011-01-23T08:53:11Z</time>
      </trkpt>
      <trkpt lat="43.50296" lon="6.81552">
        <ele>553.86</ele>
        <time>2011-01-23T08:53:13Z</time>
      </trkpt>
      <trkpt lat="43.50301" lon="6.81555">
        <ele>555.3</ele>
        <time>2011-01-23T08:53:20Z</time>
      </trkpt>
      <trkpt lat="43.50313" lon="6.81556">
        <ele>556.26</ele>
        <time>2011-01-23T08:53:32Z</time>
      </trkpt>
      <trkpt lat="43.50324" lon="6.81559">
        <ele>557.7</ele>
        <time>2011-01-23T08:53:46Z</time>
      </trkpt>
      <trkpt lat="43.50338" lon="6.81565">
        <ele>559.62</ele>
        <time>2011-01-23T08:54:03Z</time>
      </trkpt>
      <trkpt lat="43.50345" lon="6.81568">
        <ele>559.62</ele>
        <time>2011-01-23T08:54:17Z</time>
      </trkpt>
      <trkpt lat="43.50345" lon="6.81568">
        <ele>560.11</ele>
        <time>2011-01-23T08:54:31Z</time>
      </trkpt>
      <trkpt lat="43.50345" lon="6.81568">
        <ele>560.11</ele>
        <time>2011-01-23T08:54:58Z</time>
      </trkpt>
      <trkpt lat="43.50345" lon="6.81568">
        <ele>561.07</ele>
        <time>2011-01-23T08:55:23Z</time>
      </trkpt>
      <trkpt lat="43.50345" lon="6.81568">
        <ele>560.59</ele>
        <time>2011-01-23T08:55:53Z</time>
      </trkpt>
      <trkpt lat="43.50344" lon="6.81568">
        <ele>560.11</ele>
        <time>2011-01-23T08:56:27Z</time>
      </trkpt>
      <trkpt lat="43.50344" lon="6.81568">
        <ele>560.59</ele>
        <time>2011-01-23T08:56:57Z</time>
      </trkpt>
      <trkpt lat="43.50344" lon="6.81568">
        <ele>560.59</ele>
        <time>2011-01-23T08:57:19Z</time>
      </trkpt>
      <trkpt lat="43.50344" lon="6.81568">
        <ele>561.07</ele>
        <time>2011-01-23T08:57:36Z</time>
      </trkpt>
      <trkpt lat="43.50336" lon="6.81567">
        <ele>559.62</ele>
        <time>2011-01-23T08:57:51Z</time>
      </trkpt>
      <trkpt lat="43.50329" lon="6.81564">
        <ele>559.14</ele>
        <time>2011-01-23T08:58:04Z</time>
      </trkpt>
      <trkpt lat="43.50327" lon="6.81564">
        <ele>558.66</ele>
        <time>2011-01-23T08:58:19Z</time>
      </trkpt>
      <trkpt lat="43.50316" lon="6.81561">
        <ele>558.18</ele>
        <time>2011-01-23T08:58:28Z</time>
      </trkpt>
      <trkpt lat="43.50308" lon="6.81557">
        <ele>557.22</ele>
        <time>2011-01-23T08:58:37Z</time>
      </trkpt>
      <trkpt lat="43.50299" lon="6.81554">
        <ele>556.26</ele>
        <time>2011-01-23T08:58:52Z</time>
      </trkpt>
      <trkpt lat="43.50299" lon="6.81554">
        <ele>555.78</ele>
        <time>2011-01-23T08:59:11Z</time>
      </trkpt>
      <trkpt lat="43.50299" lon="6.81554">
        <ele>556.26</ele>
        <time>2011-01-23T08:59:21Z</time>
      </trkpt>
      <trkpt lat="43.50295" lon="6.81552">
        <ele>555.3</ele>
        <time>2011-01-23T08:59:25Z</time>
      </trkpt>
      <trkpt lat="43.50275" lon="6.81544">
        <ele>552.41</ele>
        <time>2011-01-23T08:59:39Z</time>
      </trkpt>
      <trkpt lat="43.50258" lon="6.81542">
        <ele>552.41</ele>
        <time>2011-01-23T08:59:53Z</time>
      </trkpt>
      <trkpt lat="43.50251" lon="6.81535">
        <ele>553.86</ele>
        <time>2011-01-23T09:00:07Z</time>
      </trkpt>
      <trkpt lat="43.50245" lon="6.81532">
        <ele>555.78</ele>
        <time>2011-01-23T09:00:21Z</time>
      </trkpt>
      <trkpt lat="43.50245" lon="6.81533">
        <ele>555.78</ele>
        <time>2011-01-23T09:00:50Z</time>
      </trkpt>
      <trkpt lat="43.50253" lon="6.81537">
        <ele>553.86</ele>
        <time>2011-01-23T09:01:03Z</time>
      </trkpt>
      <trkpt lat="43.50254" lon="6.81538">
        <ele>553.38</ele>
        <time>2011-01-23T09:01:08Z</time>
      </trkpt>
      <trkpt lat="43.50258" lon="6.81543">
        <ele>552.41</ele>
        <time>2011-01-23T09:01:12Z</time>
      </trkpt>
      <trkpt lat="43.50262" lon="6.81553">
        <ele>552.9</ele>
        <time>2011-01-23T09:01:20Z</time>
      </trkpt>
      <trkpt lat="43.50268" lon="6.81564">
        <ele>552.41</ele>
        <time>2011-01-23T09:01:30Z</time>
      </trkpt>
      <trkpt lat="43.50279" lon="6.81585">
        <ele>551.93</ele>
        <time>2011-01-23T09:01:46Z</time>
      </trkpt>
      <trkpt lat="43.50282" lon="6.81602">
        <ele>552.9</ele>
        <time>2011-01-23T09:02:00Z</time>
      </trkpt>
      <trkpt lat="43.50285" lon="6.81621">
        <ele>554.34</ele>
        <time>2011-01-23T09:02:13Z</time>
      </trkpt>
      <trkpt lat="43.50288" lon="6.81638">
        <ele>554.34</ele>
        <time>2011-01-23T09:02:26Z</time>
      </trkpt>
      <trkpt lat="43.50291" lon="6.81653">
        <ele>555.3</ele>
        <time>2011-01-23T09:02:40Z</time>
      </trkpt>
      <trkpt lat="43.50291" lon="6.81666">
        <ele>553.86</ele>
        <time>2011-01-23T09:02:53Z</time>
      </trkpt>
      <trkpt lat="43.50289" lon="6.81679">
        <ele>552.9</ele>
        <time>2011-01-23T09:03:03Z</time>
      </trkpt>
      <trkpt lat="43.50287" lon="6.81685">
        <ele>551.93</ele>
        <time>2011-01-23T09:03:08Z</time>
      </trkpt>
      <trkpt lat="43.50286" lon="6.81689">
        <ele>551.45</ele>
        <time>2011-01-23T09:03:11Z</time>
      </trkpt>
      <trkpt lat="43.50283" lon="6.81696">
        <ele>550.49</ele>
        <time>2011-01-23T09:03:16Z</time>
      </trkpt>
      <trkpt lat="43.50269" lon="6.81716">
        <ele>549.05</ele>
        <time>2011-01-23T09:03:31Z</time>
      </trkpt>
      <trkpt lat="43.50259" lon="6.81731">
        <ele>547.61</ele>
        <time>2011-01-23T09:03:43Z</time>
      </trkpt>
      <trkpt lat="43.50251" lon="6.81751">
        <ele>546.65</ele>
        <time>2011-01-23T09:03:58Z</time>
      </trkpt>
      <trkpt lat="43.50249" lon="6.81757">
        <ele>547.13</ele>
        <time>2011-01-23T09:04:03Z</time>
      </trkpt>
      <trkpt lat="43.50249" lon="6.8176">
        <ele>547.61</ele>
        <time>2011-01-23T09:04:08Z</time>
      </trkpt>
      <trkpt lat="43.5025" lon="6.81765">
        <ele>547.61</ele>
        <time>2011-01-23T09:04:22Z</time>
      </trkpt>
      <trkpt lat="43.50251" lon="6.81777">
        <ele>548.57</ele>
        <time>2011-01-23T09:04:37Z</time>
      </trkpt>
      <trkpt lat="43.50251" lon="6.81777">
        <ele>548.57</ele>
        <time>2011-01-23T09:04:54Z</time>
      </trkpt>
      <trkpt lat="43.50251" lon="6.81783">
        <ele>549.05</ele>
        <time>2011-01-23T09:05:04Z</time>
      </trkpt>
      <trkpt lat="43.5025" lon="6.8181">
        <ele>550.49</ele>
        <time>2011-01-23T09:05:21Z</time>
      </trkpt>
      <trkpt lat="43.5025" lon="6.81834">
        <ele>551.93</ele>
        <time>2011-01-23T09:05:35Z</time>
      </trkpt>
      <trkpt lat="43.5025" lon="6.8185">
        <ele>552.9</ele>
        <time>2011-01-23T09:05:45Z</time>
      </trkpt>
      <trkpt lat="43.5025" lon="6.81871">
        <ele>554.34</ele>
        <time>2011-01-23T09:05:59Z</time>
      </trkpt>
      <trkpt lat="43.5025" lon="6.8188">
        <ele>554.82</ele>
        <time>2011-01-23T09:06:06Z</time>
      </trkpt>
      <trkpt lat="43.50251" lon="6.81894">
        <ele>555.78</ele>
        <time>2011-01-23T09:06:16Z</time>
      </trkpt>
      <trkpt lat="43.50251" lon="6.81897">
        <ele>556.26</ele>
        <time>2011-01-23T09:06:18Z</time>
      </trkpt>
      <trkpt lat="43.50249" lon="6.81919">
        <ele>557.7</ele>
        <time>2011-01-23T09:06:34Z</time>
      </trkpt>
      <trkpt lat="43.50248" lon="6.81923">
        <ele>558.18</ele>
        <time>2011-01-23T09:06:37Z</time>
      </trkpt>
      <trkpt lat="43.50248" lon="6.81941">
        <ele>559.62</ele>
        <time>2011-01-23T09:06:51Z</time>
      </trkpt>
      <trkpt lat="43.50253" lon="6.81957">
        <ele>560.59</ele>
        <time>2011-01-23T09:07:03Z</time>
      </trkpt>
      <trkpt lat="43.50252" lon="6.81981">
        <ele>560.59</ele>
        <time>2011-01-23T09:07:18Z</time>
      </trkpt>
      <trkpt lat="43.50251" lon="6.81997">
        <ele>561.07</ele>
        <time>2011-01-23T09:07:28Z</time>
      </trkpt>
      <trkpt lat="43.50252" lon="6.82019">
        <ele>562.03</ele>
        <time>2011-01-23T09:07:44Z</time>
      </trkpt>
      <trkpt lat="43.50253" lon="6.82027">
        <ele>562.51</ele>
        <time>2011-01-23T09:07:49Z</time>
      </trkpt>
      <trkpt lat="43.50258" lon="6.82047">
        <ele>564.43</ele>
        <time>2011-01-23T09:08:04Z</time>
      </trkpt>
      <trkpt lat="43.50263" lon="6.82063">
        <ele>566.83</ele>
        <time>2011-01-23T09:08:19Z</time>
      </trkpt>
      <trkpt lat="43.50269" lon="6.82075">
        <ele>569.72</ele>
        <time>2011-01-23T09:08:32Z</time>
      </trkpt>
      <trkpt lat="43.50271" lon="6.82085">
        <ele>571.16</ele>
        <time>2011-01-23T09:08:46Z</time>
      </trkpt>
      <trkpt lat="43.50264" lon="6.82081">
        <ele>572.6</ele>
        <time>2011-01-23T09:09:00Z</time>
      </trkpt>
      <trkpt lat="43.50258" lon="6.82079">
        <ele>573.08</ele>
        <time>2011-01-23T09:09:11Z</time>
      </trkpt>
      <trkpt lat="43.50252" lon="6.82076">
        <ele>575.01</ele>
        <time>2011-01-23T09:09:19Z</time>
      </trkpt>
      <trkpt lat="43.5024" lon="6.82064">
        <ele>577.41</ele>
        <time>2011-01-23T09:09:36Z</time>
      </trkpt>
      <trkpt lat="43.50232" lon="6.8205">
        <ele>579.81</ele>
        <time>2011-01-23T09:09:51Z</time>
      </trkpt>
      <trkpt lat="43.50229" lon="6.82049">
        <ele>580.29</ele>
        <time>2011-01-23T09:10:06Z</time>
      </trkpt>
      <trkpt lat="43.50229" lon="6.82049">
        <ele>581.25</ele>
        <time>2011-01-23T09:10:21Z</time>
      </trkpt>
      <trkpt lat="43.50229" lon="6.82049">
        <ele>582.22</ele>
        <time>2011-01-23T09:10:32Z</time>
      </trkpt>
      <trkpt lat="43.50217" lon="6.82045">
        <ele>585.58</ele>
        <time>2011-01-23T09:10:40Z</time>
      </trkpt>
      <trkpt lat="43.50215" lon="6.82044">
        <ele>586.06</ele>
        <time>2011-01-23T09:10:42Z</time>
      </trkpt>
      <trkpt lat="43.50213" lon="6.82044">
        <ele>587.02</ele>
        <time>2011-01-23T09:10:44Z</time>
      </trkpt>
      <trkpt lat="43.50202" lon="6.82039">
        <ele>590.87</ele>
        <time>2011-01-23T09:10:54Z</time>
      </trkpt>
      <trkpt lat="43.50198" lon="6.82036">
        <ele>591.83</ele>
        <time>2011-01-23T09:11:08Z</time>
      </trkpt>
      <trkpt lat="43.50202" lon="6.82037">
        <ele>590.87</ele>
        <time>2011-01-23T09:11:16Z</time>
      </trkpt>
      <trkpt lat="43.50211" lon="6.8204">
        <ele>587.02</ele>
        <time>2011-01-23T09:11:28Z</time>
      </trkpt>
      <trkpt lat="43.50222" lon="6.82043">
        <ele>584.14</ele>
        <time>2011-01-23T09:11:41Z</time>
      </trkpt>
      <trkpt lat="43.50228" lon="6.82047">
        <ele>582.22</ele>
        <time>2011-01-23T09:11:50Z</time>
      </trkpt>
      <trkpt lat="43.50232" lon="6.82061">
        <ele>582.22</ele>
        <time>2011-01-23T09:12:02Z</time>
      </trkpt>
      <trkpt lat="43.50234" lon="6.82075">
        <ele>583.66</ele>
        <time>2011-01-23T09:12:15Z</time>
      </trkpt>
      <trkpt lat="43.50238" lon="6.82087">
        <ele>585.1</ele>
        <time>2011-01-23T09:12:29Z</time>
      </trkpt>
      <trkpt lat="43.50243" lon="6.82099">
        <ele>585.58</ele>
        <time>2011-01-23T09:12:43Z</time>
      </trkpt>
      <trkpt lat="43.50244" lon="6.82105">
        <ele>586.54</ele>
        <time>2011-01-23T09:12:57Z</time>
      </trkpt>
      <trkpt lat="43.50244" lon="6.82105">
        <ele>587.5</ele>
        <time>2011-01-23T09:13:16Z</time>
      </trkpt>
      <trkpt lat="43.50246" lon="6.82108">
        <ele>588.95</ele>
        <time>2011-01-23T09:13:34Z</time>
      </trkpt>
      <trkpt lat="43.5025" lon="6.82119">
        <ele>590.87</ele>
        <time>2011-01-23T09:13:51Z</time>
      </trkpt>
      <trkpt lat="43.50249" lon="6.8212">
        <ele>593.27</ele>
        <time>2011-01-23T09:14:05Z</time>
      </trkpt>
      <trkpt lat="43.50248" lon="6.82122">
        <ele>595.67</ele>
        <time>2011-01-23T09:14:20Z</time>
      </trkpt>
      <trkpt lat="43.50248" lon="6.82122">
        <ele>597.6</ele>
        <time>2011-01-23T09:14:33Z</time>
      </trkpt>
      <trkpt lat="43.50248" lon="6.82123">
        <ele>600</ele>
        <time>2011-01-23T09:14:47Z</time>
      </trkpt>
      <trkpt lat="43.50238" lon="6.82132">
        <ele>602.4</ele>
        <time>2011-01-23T09:15:00Z</time>
      </trkpt>
      <trkpt lat="43.50232" lon="6.82135">
        <ele>602.88</ele>
        <time>2011-01-23T09:15:07Z</time>
      </trkpt>
      <trkpt lat="43.50228" lon="6.82152">
        <ele>605.29</ele>
        <time>2011-01-23T09:15:22Z</time>
      </trkpt>
      <trkpt lat="43.50228" lon="6.82152">
        <ele>606.25</ele>
        <time>2011-01-23T09:15:35Z</time>
      </trkpt>
      <trkpt lat="43.50228" lon="6.82152">
        <ele>607.69</ele>
        <time>2011-01-23T09:15:48Z</time>
      </trkpt>
      <trkpt lat="43.50227" lon="6.82157">
        <ele>609.13</ele>
        <time>2011-01-23T09:16:00Z</time>
      </trkpt>
      <trkpt lat="43.50223" lon="6.82162">
        <ele>611.06</ele>
        <time>2011-01-23T09:16:14Z</time>
      </trkpt>
      <trkpt lat="43.5022" lon="6.82166">
        <ele>612.02</ele>
        <time>2011-01-23T09:16:29Z</time>
      </trkpt>
      <trkpt lat="43.50219" lon="6.82172">
        <ele>613.46</ele>
        <time>2011-01-23T09:16:41Z</time>
      </trkpt>
      <trkpt lat="43.50217" lon="6.82179">
        <ele>612.5</ele>
        <time>2011-01-23T09:16:53Z</time>
      </trkpt>
      <trkpt lat="43.50217" lon="6.82179">
        <ele>613.46</ele>
        <time>2011-01-23T09:17:03Z</time>
      </trkpt>
      <trkpt lat="43.50217" lon="6.82179">
        <ele>613.46</ele>
        <time>2011-01-23T09:17:28Z</time>
      </trkpt>
      <trkpt lat="43.50217" lon="6.82179">
        <ele>613.46</ele>
        <time>2011-01-23T09:17:58Z</time>
      </trkpt>
      <trkpt lat="43.50217" lon="6.82179">
        <ele>612.5</ele>
        <time>2011-01-23T09:18:31Z</time>
      </trkpt>
      <trkpt lat="43.50217" lon="6.82179">
        <ele>606.73</ele>
        <time>2011-01-23T09:18:45Z</time>
      </trkpt>
      <trkpt lat="43.50217" lon="6.82179">
        <ele>612.98</ele>
        <time>2011-01-23T09:18:46Z</time>
      </trkpt>
      <trkpt lat="43.50217" lon="6.8218">
        <ele>612.02</ele>
        <time>2011-01-23T09:19:16Z</time>
      </trkpt>
      <trkpt lat="43.50217" lon="6.8218">
        <ele>612.5</ele>
        <time>2011-01-23T09:19:52Z</time>
      </trkpt>
      <trkpt lat="43.50216" lon="6.82181">
        <ele>612.5</ele>
        <time>2011-01-23T09:20:35Z</time>
      </trkpt>
      <trkpt lat="43.50216" lon="6.82182">
        <ele>612.5</ele>
        <time>2011-01-23T09:21:09Z</time>
      </trkpt>
      <trkpt lat="43.50216" lon="6.82182">
        <ele>612.5</ele>
        <time>2011-01-23T09:21:43Z</time>
      </trkpt>
      <trkpt lat="43.50216" lon="6.82182">
        <ele>612.5</ele>
        <time>2011-01-23T09:22:18Z</time>
      </trkpt>
      <trkpt lat="43.50216" lon="6.82182">
        <ele>612.02</ele>
        <time>2011-01-23T09:22:54Z</time>
      </trkpt>
      <trkpt lat="43.50216" lon="6.82182">
        <ele>612.02</ele>
        <time>2011-01-23T09:23:28Z</time>
      </trkpt>
      <trkpt lat="43.50216" lon="6.82182">
        <ele>612.02</ele>
        <time>2011-01-23T09:24:05Z</time>
      </trkpt>
      <trkpt lat="43.50216" lon="6.82182">
        <ele>611.54</ele>
        <time>2011-01-23T09:24:43Z</time>
      </trkpt>
      <trkpt lat="43.50216" lon="6.82183">
        <ele>612.02</ele>
        <time>2011-01-23T09:25:13Z</time>
      </trkpt>
      <trkpt lat="43.50216" lon="6.82183">
        <ele>600.96</ele>
        <time>2011-01-23T09:25:35Z</time>
      </trkpt>
      <trkpt lat="43.50216" lon="6.82183">
        <ele>614.42</ele>
        <time>2011-01-23T09:25:36Z</time>
      </trkpt>
      <trkpt lat="43.50216" lon="6.82183">
        <ele>612.98</ele>
        <time>2011-01-23T09:25:41Z</time>
      </trkpt>
      <trkpt lat="43.50216" lon="6.82183">
        <ele>612.02</ele>
        <time>2011-01-23T09:26:03Z</time>
      </trkpt>
      <trkpt lat="43.50216" lon="6.82183">
        <ele>611.54</ele>
        <time>2011-01-23T09:26:40Z</time>
      </trkpt>
      <trkpt lat="43.50215" lon="6.82183">
        <ele>611.54</ele>
        <time>2011-01-23T09:27:03Z</time>
      </trkpt>
      <trkpt lat="43.50215" lon="6.82183">
        <ele>612.02</ele>
        <time>2011-01-23T09:27:24Z</time>
      </trkpt>
      <trkpt lat="43.50215" lon="6.82183">
        <ele>612.02</ele>
        <time>2011-01-23T09:27:48Z</time>
      </trkpt>
      <trkpt lat="43.50215" lon="6.82184">
        <ele>611.54</ele>
        <time>2011-01-23T09:28:12Z</time>
      </trkpt>
      <trkpt lat="43.50215" lon="6.82184">
        <ele>612.02</ele>
        <time>2011-01-23T09:28:43Z</time>
      </trkpt>
      <trkpt lat="43.50215" lon="6.82184">
        <ele>612.02</ele>
        <time>2011-01-23T09:29:09Z</time>
      </trkpt>
      <trkpt lat="43.50215" lon="6.82184">
        <ele>612.02</ele>
        <time>2011-01-23T09:29:36Z</time>
      </trkpt>
      <trkpt lat="43.50215" lon="6.82184">
        <ele>612.02</ele>
        <time>2011-01-23T09:30:09Z</time>
      </trkpt>
      <trkpt lat="43.50215" lon="6.82184">
        <ele>611.54</ele>
        <time>2011-01-23T09:30:38Z</time>
      </trkpt>
      <trkpt lat="43.50215" lon="6.82185">
        <ele>612.02</ele>
        <time>2011-01-23T09:31:08Z</time>
      </trkpt>
      <trkpt lat="43.50214" lon="6.82184">
        <ele>611.54</ele>
        <time>2011-01-23T09:31:35Z</time>
      </trkpt>
      <trkpt lat="43.50214" lon="6.82184">
        <ele>611.54</ele>
        <time>2011-01-23T09:32:06Z</time>
      </trkpt>
      <trkpt lat="43.50214" lon="6.82185">
        <ele>612.02</ele>
        <time>2011-01-23T09:32:38Z</time>
      </trkpt>
      <trkpt lat="43.50214" lon="6.82185">
        <ele>612.98</ele>
        <time>2011-01-23T09:32:57Z</time>
      </trkpt>
      <trkpt lat="43.50214" lon="6.82185">
        <ele>612.98</ele>
        <time>2011-01-23T09:33:13Z</time>
      </trkpt>
      <trkpt lat="43.50214" lon="6.82185">
        <ele>612.98</ele>
        <time>2011-01-23T09:33:35Z</time>
      </trkpt>
      <trkpt lat="43.50214" lon="6.82185">
        <ele>613.46</ele>
        <time>2011-01-23T09:34:00Z</time>
      </trkpt>
      <trkpt lat="43.50214" lon="6.82185">
        <ele>612.98</ele>
        <time>2011-01-23T09:34:28Z</time>
      </trkpt>
      <trkpt lat="43.50214" lon="6.82186">
        <ele>612.5</ele>
        <time>2011-01-23T09:34:48Z</time>
      </trkpt>
      <trkpt lat="43.50214" lon="6.82186">
        <ele>612.98</ele>
        <time>2011-01-23T09:35:20Z</time>
      </trkpt>
      <trkpt lat="43.50214" lon="6.82186">
        <ele>612.5</ele>
        <time>2011-01-23T09:35:53Z</time>
      </trkpt>
      <trkpt lat="43.50214" lon="6.82186">
        <ele>612.98</ele>
        <time>2011-01-23T09:36:28Z</time>
      </trkpt>
      <trkpt lat="43.50214" lon="6.82186">
        <ele>612.5</ele>
        <time>2011-01-23T09:36:48Z</time>
      </trkpt>
      <trkpt lat="43.50214" lon="6.82181">
        <ele>612.98</ele>
        <time>2011-01-23T09:37:05Z</time>
      </trkpt>
      <trkpt lat="43.50215" lon="6.82179">
        <ele>612.98</ele>
        <time>2011-01-23T09:37:24Z</time>
      </trkpt>
      <trkpt lat="43.50215" lon="6.82179">
        <ele>612.5</ele>
        <time>2011-01-23T09:37:42Z</time>
      </trkpt>
      <trkpt lat="43.50215" lon="6.82179">
        <ele>612.5</ele>
        <time>2011-01-23T09:38:08Z</time>
      </trkpt>
      <trkpt lat="43.50215" lon="6.82179">
        <ele>612.5</ele>
        <time>2011-01-23T09:38:49Z</time>
      </trkpt>
      <trkpt lat="43.50215" lon="6.82179">
        <ele>612.98</ele>
        <time>2011-01-23T09:39:08Z</time>
      </trkpt>
      <trkpt lat="43.50215" lon="6.8218">
        <ele>612.98</ele>
        <time>2011-01-23T09:39:21Z</time>
      </trkpt>
      <trkpt lat="43.50215" lon="6.82184">
        <ele>612.98</ele>
        <time>2011-01-23T09:39:33Z</time>
      </trkpt>
      <trkpt lat="43.50215" lon="6.82184">
        <ele>612.5</ele>
        <time>2011-01-23T09:40:00Z</time>
      </trkpt>
      <trkpt lat="43.50215" lon="6.82184">
        <ele>612.98</ele>
        <time>2011-01-23T09:40:29Z</time>
      </trkpt>
      <trkpt lat="43.50215" lon="6.82184">
        <ele>612.98</ele>
        <time>2011-01-23T09:40:50Z</time>
      </trkpt>
      <trkpt lat="43.50215" lon="6.82184">
        <ele>612.98</ele>
        <time>2011-01-23T09:41:17Z</time>
      </trkpt>
      <trkpt lat="43.50215" lon="6.82184">
        <ele>612.98</ele>
        <time>2011-01-23T09:41:45Z</time>
      </trkpt>
      <trkpt lat="43.50215" lon="6.82184">
        <ele>612.98</ele>
        <time>2011-01-23T09:42:13Z</time>
      </trkpt>
      <trkpt lat="43.50215" lon="6.82184">
        <ele>612.98</ele>
        <time>2011-01-23T09:42:34Z</time>
      </trkpt>
      <trkpt lat="43.50214" lon="6.82184">
        <ele>612.98</ele>
        <time>2011-01-23T09:43:13Z</time>
      </trkpt>
      <trkpt lat="43.50215" lon="6.82185">
        <ele>612.98</ele>
        <time>2011-01-23T09:43:43Z</time>
      </trkpt>
      <trkpt lat="43.50214" lon="6.82184">
        <ele>612.98</ele>
        <time>2011-01-23T09:44:11Z</time>
      </trkpt>
      <trkpt lat="43.50214" lon="6.82183">
        <ele>612.98</ele>
        <time>2011-01-23T09:44:25Z</time>
      </trkpt>
      <trkpt lat="43.50214" lon="6.82183">
        <ele>612.5</ele>
        <time>2011-01-23T09:44:44Z</time>
      </trkpt>
      <trkpt lat="43.50214" lon="6.82183">
        <ele>612.98</ele>
        <time>2011-01-23T09:44:57Z</time>
      </trkpt>
      <trkpt lat="43.50214" lon="6.82183">
        <ele>612.5</ele>
        <time>2011-01-23T09:45:13Z</time>
      </trkpt>
      <trkpt lat="43.50214" lon="6.82183">
        <ele>612.98</ele>
        <time>2011-01-23T09:45:27Z</time>
      </trkpt>
      <trkpt lat="43.50214" lon="6.8218">
        <ele>612.5</ele>
        <time>2011-01-23T09:45:56Z</time>
      </trkpt>
      <trkpt lat="43.50212" lon="6.82176">
        <ele>611.54</ele>
        <time>2011-01-23T09:46:06Z</time>
      </trkpt>
      <trkpt lat="43.50212" lon="6.82175">
        <ele>611.54</ele>
        <time>2011-01-23T09:46:24Z</time>
      </trkpt>
      <trkpt lat="43.50214" lon="6.82173">
        <ele>610.09</ele>
        <time>2011-01-23T09:46:36Z</time>
      </trkpt>
      <trkpt lat="43.50216" lon="6.82171">
        <ele>608.65</ele>
        <time>2011-01-23T09:46:49Z</time>
      </trkpt>
      <trkpt lat="43.50217" lon="6.82172">
        <ele>608.17</ele>
        <time>2011-01-23T09:46:52Z</time>
      </trkpt>
      <trkpt lat="43.50221" lon="6.8217">
        <ele>606.25</ele>
        <time>2011-01-23T09:47:08Z</time>
      </trkpt>
      <trkpt lat="43.50222" lon="6.82166">
        <ele>604.33</ele>
        <time>2011-01-23T09:47:21Z</time>
      </trkpt>
      <trkpt lat="43.50222" lon="6.82166">
        <ele>604.33</ele>
        <time>2011-01-23T09:47:22Z</time>
      </trkpt>
      <trkpt lat="43.50222" lon="6.82163">
        <ele>602.88</ele>
        <time>2011-01-23T09:47:35Z</time>
      </trkpt>
      <trkpt lat="43.50222" lon="6.82163">
        <ele>602.4</ele>
        <time>2011-01-23T09:47:49Z</time>
      </trkpt>
      <trkpt lat="43.50222" lon="6.82163">
        <ele>601.44</ele>
        <time>2011-01-23T09:47:55Z</time>
      </trkpt>
      <trkpt lat="43.50224" lon="6.82162">
        <ele>600.96</ele>
        <time>2011-01-23T09:48:11Z</time>
      </trkpt>
      <trkpt lat="43.50224" lon="6.82162">
        <ele>600.96</ele>
        <time>2011-01-23T09:48:12Z</time>
      </trkpt>
      <trkpt lat="43.5023" lon="6.8216">
        <ele>600</ele>
        <time>2011-01-23T09:48:15Z</time>
      </trkpt>
      <trkpt lat="43.50239" lon="6.82148">
        <ele>596.64</ele>
        <time>2011-01-23T09:48:30Z</time>
      </trkpt>
      <trkpt lat="43.50239" lon="6.82148">
        <ele>596.15</ele>
        <time>2011-01-23T09:48:48Z</time>
      </trkpt>
      <trkpt lat="43.5024" lon="6.82147">
        <ele>595.67</ele>
        <time>2011-01-23T09:49:05Z</time>
      </trkpt>
      <trkpt lat="43.50243" lon="6.82145">
        <ele>594.71</ele>
        <time>2011-01-23T09:49:17Z</time>
      </trkpt>
      <trkpt lat="43.50247" lon="6.82138">
        <ele>591.83</ele>
        <time>2011-01-23T09:49:31Z</time>
      </trkpt>
      <trkpt lat="43.50249" lon="6.82136">
        <ele>591.35</ele>
        <time>2011-01-23T09:49:39Z</time>
      </trkpt>
      <trkpt lat="43.50251" lon="6.82114">
        <ele>589.43</ele>
        <time>2011-01-23T09:49:55Z</time>
      </trkpt>
      <trkpt lat="43.50249" lon="6.82109">
        <ele>587.5</ele>
        <time>2011-01-23T09:50:09Z</time>
      </trkpt>
      <trkpt lat="43.50243" lon="6.82097">
        <ele>586.54</ele>
        <time>2011-01-23T09:50:18Z</time>
      </trkpt>
      <trkpt lat="43.50239" lon="6.82085">
        <ele>584.62</ele>
        <time>2011-01-23T09:50:31Z</time>
      </trkpt>
      <trkpt lat="43.50238" lon="6.82083">
        <ele>584.14</ele>
        <time>2011-01-23T09:50:33Z</time>
      </trkpt>
      <trkpt lat="43.50232" lon="6.82068">
        <ele>582.7</ele>
        <time>2011-01-23T09:50:47Z</time>
      </trkpt>
      <trkpt lat="43.50229" lon="6.8206">
        <ele>582.22</ele>
        <time>2011-01-23T09:51:00Z</time>
      </trkpt>
      <trkpt lat="43.50229" lon="6.82051">
        <ele>581.25</ele>
        <time>2011-01-23T09:51:13Z</time>
      </trkpt>
      <trkpt lat="43.5023" lon="6.82043">
        <ele>581.73</ele>
        <time>2011-01-23T09:51:25Z</time>
      </trkpt>
      <trkpt lat="43.5023" lon="6.82046">
        <ele>581.25</ele>
        <time>2011-01-23T09:51:37Z</time>
      </trkpt>
      <trkpt lat="43.50227" lon="6.82047">
        <ele>581.73</ele>
        <time>2011-01-23T09:51:43Z</time>
      </trkpt>
      <trkpt lat="43.50224" lon="6.82044">
        <ele>583.18</ele>
        <time>2011-01-23T09:51:47Z</time>
      </trkpt>
      <trkpt lat="43.50214" lon="6.82042">
        <ele>587.02</ele>
        <time>2011-01-23T09:52:00Z</time>
      </trkpt>
      <trkpt lat="43.50206" lon="6.82039">
        <ele>589.91</ele>
        <time>2011-01-23T09:52:15Z</time>
      </trkpt>
      <trkpt lat="43.50201" lon="6.82038">
        <ele>592.31</ele>
        <time>2011-01-23T09:52:29Z</time>
      </trkpt>
      <trkpt lat="43.50194" lon="6.82037">
        <ele>592.79</ele>
        <time>2011-01-23T09:52:38Z</time>
      </trkpt>
      <trkpt lat="43.5019" lon="6.82039">
        <ele>593.27</ele>
        <time>2011-01-23T09:52:51Z</time>
      </trkpt>
      <trkpt lat="43.50192" lon="6.82043">
        <ele>592.31</ele>
        <time>2011-01-23T09:53:07Z</time>
      </trkpt>
      <trkpt lat="43.50192" lon="6.82043">
        <ele>592.31</ele>
        <time>2011-01-23T09:53:26Z</time>
      </trkpt>
      <trkpt lat="43.50192" lon="6.82042">
        <ele>593.27</ele>
        <time>2011-01-23T09:53:45Z</time>
      </trkpt>
      <trkpt lat="43.5019" lon="6.82038">
        <ele>593.27</ele>
        <time>2011-01-23T09:54:01Z</time>
      </trkpt>
      <trkpt lat="43.50191" lon="6.82039">
        <ele>593.27</ele>
        <time>2011-01-23T09:54:16Z</time>
      </trkpt>
      <trkpt lat="43.50193" lon="6.82044">
        <ele>591.35</ele>
        <time>2011-01-23T09:54:31Z</time>
      </trkpt>
      <trkpt lat="43.50194" lon="6.82048">
        <ele>590.87</ele>
        <time>2011-01-23T09:54:36Z</time>
      </trkpt>
      <trkpt lat="43.50192" lon="6.82055">
        <ele>588.95</ele>
        <time>2011-01-23T09:54:49Z</time>
      </trkpt>
      <trkpt lat="43.50188" lon="6.8206">
        <ele>587.5</ele>
        <time>2011-01-23T09:55:01Z</time>
      </trkpt>
      <trkpt lat="43.50188" lon="6.8206">
        <ele>587.5</ele>
        <time>2011-01-23T09:55:22Z</time>
      </trkpt>
      <trkpt lat="43.50184" lon="6.82054">
        <ele>585.58</ele>
        <time>2011-01-23T09:55:29Z</time>
      </trkpt>
      <trkpt lat="43.50181" lon="6.82053">
        <ele>585.58</ele>
        <time>2011-01-23T09:55:33Z</time>
      </trkpt>
      <trkpt lat="43.50179" lon="6.82048">
        <ele>585.1</ele>
        <time>2011-01-23T09:55:38Z</time>
      </trkpt>
      <trkpt lat="43.50176" lon="6.82048">
        <ele>583.18</ele>
        <time>2011-01-23T09:55:54Z</time>
      </trkpt>
      <trkpt lat="43.50171" lon="6.82058">
        <ele>582.7</ele>
        <time>2011-01-23T09:56:09Z</time>
      </trkpt>
      <trkpt lat="43.50168" lon="6.82057">
        <ele>579.33</ele>
        <time>2011-01-23T09:56:22Z</time>
      </trkpt>
      <trkpt lat="43.50163" lon="6.82051">
        <ele>576.93</ele>
        <time>2011-01-23T09:56:36Z</time>
      </trkpt>
      <trkpt lat="43.50162" lon="6.82051">
        <ele>577.41</ele>
        <time>2011-01-23T09:56:39Z</time>
      </trkpt>
      <trkpt lat="43.50159" lon="6.82046">
        <ele>575.01</ele>
        <time>2011-01-23T09:56:52Z</time>
      </trkpt>
      <trkpt lat="43.50159" lon="6.82047">
        <ele>575.01</ele>
        <time>2011-01-23T09:56:57Z</time>
      </trkpt>
      <trkpt lat="43.50158" lon="6.8205">
        <ele>574.04</ele>
        <time>2011-01-23T09:57:01Z</time>
      </trkpt>
      <trkpt lat="43.50155" lon="6.82058">
        <ele>572.12</ele>
        <time>2011-01-23T09:57:15Z</time>
      </trkpt>
      <trkpt lat="43.50154" lon="6.82052">
        <ele>571.16</ele>
        <time>2011-01-23T09:57:26Z</time>
      </trkpt>
      <trkpt lat="43.50152" lon="6.82046">
        <ele>569.24</ele>
        <time>2011-01-23T09:57:42Z</time>
      </trkpt>
      <trkpt lat="43.50145" lon="6.82044">
        <ele>567.32</ele>
        <time>2011-01-23T09:57:55Z</time>
      </trkpt>
      <trkpt lat="43.50145" lon="6.82045">
        <ele>566.35</ele>
        <time>2011-01-23T09:57:59Z</time>
      </trkpt>
      <trkpt lat="43.50137" lon="6.82049">
        <ele>564.43</ele>
        <time>2011-01-23T09:58:10Z</time>
      </trkpt>
      <trkpt lat="43.50137" lon="6.82045">
        <ele>562.99</ele>
        <time>2011-01-23T09:58:23Z</time>
      </trkpt>
      <trkpt lat="43.50134" lon="6.82041">
        <ele>560.59</ele>
        <time>2011-01-23T09:58:35Z</time>
      </trkpt>
      <trkpt lat="43.50134" lon="6.8204">
        <ele>559.14</ele>
        <time>2011-01-23T09:58:44Z</time>
      </trkpt>
      <trkpt lat="43.50133" lon="6.82034">
        <ele>559.62</ele>
        <time>2011-01-23T09:58:48Z</time>
      </trkpt>
      <trkpt lat="43.50133" lon="6.82026">
        <ele>557.7</ele>
        <time>2011-01-23T09:58:59Z</time>
      </trkpt>
      <trkpt lat="43.50135" lon="6.82019">
        <ele>556.26</ele>
        <time>2011-01-23T09:59:11Z</time>
      </trkpt>
      <trkpt lat="43.50133" lon="6.82008">
        <ele>553.38</ele>
        <time>2011-01-23T09:59:24Z</time>
      </trkpt>
      <trkpt lat="43.50132" lon="6.82007">
        <ele>552.9</ele>
        <time>2011-01-23T09:59:25Z</time>
      </trkpt>
      <trkpt lat="43.50128" lon="6.8199">
        <ele>551.93</ele>
        <time>2011-01-23T09:59:38Z</time>
      </trkpt>
      <trkpt lat="43.50127" lon="6.8198">
        <ele>550.49</ele>
        <time>2011-01-23T09:59:51Z</time>
      </trkpt>
      <trkpt lat="43.50123" lon="6.81974">
        <ele>550.01</ele>
        <time>2011-01-23T10:00:03Z</time>
      </trkpt>
      <trkpt lat="43.5012" lon="6.81969">
        <ele>549.53</ele>
        <time>2011-01-23T10:00:16Z</time>
      </trkpt>
      <trkpt lat="43.5012" lon="6.81969">
        <ele>549.53</ele>
        <time>2011-01-23T10:00:38Z</time>
      </trkpt>
      <trkpt lat="43.50118" lon="6.81967">
        <ele>549.05</ele>
        <time>2011-01-23T10:00:56Z</time>
      </trkpt>
      <trkpt lat="43.50112" lon="6.8195">
        <ele>547.61</ele>
        <time>2011-01-23T10:01:12Z</time>
      </trkpt>
      <trkpt lat="43.50109" lon="6.81943">
        <ele>546.65</ele>
        <time>2011-01-23T10:01:19Z</time>
      </trkpt>
      <trkpt lat="43.50101" lon="6.81927">
        <ele>544.72</ele>
        <time>2011-01-23T10:01:34Z</time>
      </trkpt>
      <trkpt lat="43.501" lon="6.81924">
        <ele>544.72</ele>
        <time>2011-01-23T10:01:37Z</time>
      </trkpt>
      <trkpt lat="43.50098" lon="6.8192">
        <ele>544.72</ele>
        <time>2011-01-23T10:01:40Z</time>
      </trkpt>
      <trkpt lat="43.50094" lon="6.81917">
        <ele>542.8</ele>
        <time>2011-01-23T10:01:44Z</time>
      </trkpt>
      <trkpt lat="43.50093" lon="6.81913">
        <ele>542.8</ele>
        <time>2011-01-23T10:01:47Z</time>
      </trkpt>
      <trkpt lat="43.50086" lon="6.81899">
        <ele>540.88</ele>
        <time>2011-01-23T10:01:59Z</time>
      </trkpt>
      <trkpt lat="43.50082" lon="6.81895">
        <ele>540.88</ele>
        <time>2011-01-23T10:02:03Z</time>
      </trkpt>
      <trkpt lat="43.50081" lon="6.81893">
        <ele>540.4</ele>
        <time>2011-01-23T10:02:05Z</time>
      </trkpt>
      <trkpt lat="43.50078" lon="6.8189">
        <ele>539.44</ele>
        <time>2011-01-23T10:02:09Z</time>
      </trkpt>
      <trkpt lat="43.5007" lon="6.8188">
        <ele>538.96</ele>
        <time>2011-01-23T10:02:23Z</time>
      </trkpt>
      <trkpt lat="43.50063" lon="6.81873">
        <ele>536.55</ele>
        <time>2011-01-23T10:02:33Z</time>
      </trkpt>
      <trkpt lat="43.50056" lon="6.81863">
        <ele>535.59</ele>
        <time>2011-01-23T10:02:45Z</time>
      </trkpt>
      <trkpt lat="43.5005" lon="6.81858">
        <ele>534.63</ele>
        <time>2011-01-23T10:02:53Z</time>
      </trkpt>
      <trkpt lat="43.50044" lon="6.81855">
        <ele>533.67</ele>
        <time>2011-01-23T10:03:02Z</time>
      </trkpt>
      <trkpt lat="43.50041" lon="6.81852">
        <ele>532.71</ele>
        <time>2011-01-23T10:03:06Z</time>
      </trkpt>
      <trkpt lat="43.50034" lon="6.81848">
        <ele>532.71</ele>
        <time>2011-01-23T10:03:17Z</time>
      </trkpt>
      <trkpt lat="43.50026" lon="6.81842">
        <ele>530.79</ele>
        <time>2011-01-23T10:03:31Z</time>
      </trkpt>
      <trkpt lat="43.50024" lon="6.8184">
        <ele>529.82</ele>
        <time>2011-01-23T10:03:33Z</time>
      </trkpt>
      <trkpt lat="43.50018" lon="6.81833">
        <ele>528.86</ele>
        <time>2011-01-23T10:03:44Z</time>
      </trkpt>
      <trkpt lat="43.50016" lon="6.81832">
        <ele>528.86</ele>
        <time>2011-01-23T10:03:46Z</time>
      </trkpt>
      <trkpt lat="43.50013" lon="6.81827">
        <ele>528.86</ele>
        <time>2011-01-23T10:04:00Z</time>
      </trkpt>
      <trkpt lat="43.50011" lon="6.81816">
        <ele>528.38</ele>
        <time>2011-01-23T10:04:16Z</time>
      </trkpt>
      <trkpt lat="43.50013" lon="6.81813">
        <ele>527.9</ele>
        <time>2011-01-23T10:04:29Z</time>
      </trkpt>
      <trkpt lat="43.50013" lon="6.81813">
        <ele>527.42</ele>
        <time>2011-01-23T10:04:54Z</time>
      </trkpt>
      <trkpt lat="43.50013" lon="6.81812">
        <ele>527.9</ele>
        <time>2011-01-23T10:05:16Z</time>
      </trkpt>
      <trkpt lat="43.50013" lon="6.81812">
        <ele>527.9</ele>
        <time>2011-01-23T10:05:39Z</time>
      </trkpt>
      <trkpt lat="43.50013" lon="6.81812">
        <ele>528.38</ele>
        <time>2011-01-23T10:06:03Z</time>
      </trkpt>
      <trkpt lat="43.50013" lon="6.81812">
        <ele>528.38</ele>
        <time>2011-01-23T10:06:15Z</time>
      </trkpt>
      <trkpt lat="43.50013" lon="6.81813">
        <ele>527.9</ele>
        <time>2011-01-23T10:06:33Z</time>
      </trkpt>
      <trkpt lat="43.5001" lon="6.81816">
        <ele>526.94</ele>
        <time>2011-01-23T10:06:48Z</time>
      </trkpt>
      <trkpt lat="43.5001" lon="6.81816">
        <ele>526.46</ele>
        <time>2011-01-23T10:07:03Z</time>
      </trkpt>
      <trkpt lat="43.50008" lon="6.81827">
        <ele>524.54</ele>
        <time>2011-01-23T10:07:14Z</time>
      </trkpt>
      <trkpt lat="43.50008" lon="6.81838">
        <ele>523.09</ele>
        <time>2011-01-23T10:07:29Z</time>
      </trkpt>
      <trkpt lat="43.50008" lon="6.81838">
        <ele>522.61</ele>
        <time>2011-01-23T10:07:44Z</time>
      </trkpt>
      <trkpt lat="43.50007" lon="6.8183">
        <ele>524.54</ele>
        <time>2011-01-23T10:07:57Z</time>
      </trkpt>
      <trkpt lat="43.50007" lon="6.8182">
        <ele>526.94</ele>
        <time>2011-01-23T10:08:11Z</time>
      </trkpt>
      <trkpt lat="43.50013" lon="6.8181">
        <ele>528.86</ele>
        <time>2011-01-23T10:08:25Z</time>
      </trkpt>
      <trkpt lat="43.50016" lon="6.81808">
        <ele>527.9</ele>
        <time>2011-01-23T10:08:38Z</time>
      </trkpt>
      <trkpt lat="43.50016" lon="6.81805">
        <ele>527.9</ele>
        <time>2011-01-23T10:08:50Z</time>
      </trkpt>
      <trkpt lat="43.50012" lon="6.8181">
        <ele>528.86</ele>
        <time>2011-01-23T10:09:07Z</time>
      </trkpt>
      <trkpt lat="43.50007" lon="6.81815">
        <ele>526.94</ele>
        <time>2011-01-23T10:09:22Z</time>
      </trkpt>
      <trkpt lat="43.50007" lon="6.81815">
        <ele>526.46</ele>
        <time>2011-01-23T10:09:42Z</time>
      </trkpt>
      <trkpt lat="43.50007" lon="6.81815">
        <ele>525.5</ele>
        <time>2011-01-23T10:09:47Z</time>
      </trkpt>
      <trkpt lat="43.50002" lon="6.81815">
        <ele>523.58</ele>
        <time>2011-01-23T10:10:04Z</time>
      </trkpt>
      <trkpt lat="43.4999" lon="6.81803">
        <ele>525.5</ele>
        <time>2011-01-23T10:10:18Z</time>
      </trkpt>
      <trkpt lat="43.49984" lon="6.81797">
        <ele>525.5</ele>
        <time>2011-01-23T10:10:24Z</time>
      </trkpt>
      <trkpt lat="43.49975" lon="6.8179">
        <ele>525.5</ele>
        <time>2011-01-23T10:10:39Z</time>
      </trkpt>
      <trkpt lat="43.49973" lon="6.81787">
        <ele>525.5</ele>
        <time>2011-01-23T10:10:42Z</time>
      </trkpt>
      <trkpt lat="43.49968" lon="6.81785">
        <ele>526.46</ele>
        <time>2011-01-23T10:10:57Z</time>
      </trkpt>
      <trkpt lat="43.49968" lon="6.81786">
        <ele>525.98</ele>
        <time>2011-01-23T10:11:19Z</time>
      </trkpt>
      <trkpt lat="43.4997" lon="6.8179">
        <ele>524.54</ele>
        <time>2011-01-23T10:11:23Z</time>
      </trkpt>
      <trkpt lat="43.49965" lon="6.81796">
        <ele>521.65</ele>
        <time>2011-01-23T10:11:37Z</time>
      </trkpt>
      <trkpt lat="43.49965" lon="6.81798">
        <ele>521.17</ele>
        <time>2011-01-23T10:11:54Z</time>
      </trkpt>
      <trkpt lat="43.49965" lon="6.81798">
        <ele>521.65</ele>
        <time>2011-01-23T10:12:17Z</time>
      </trkpt>
      <trkpt lat="43.49965" lon="6.81797">
        <ele>521.65</ele>
        <time>2011-01-23T10:12:35Z</time>
      </trkpt>
      <trkpt lat="43.49965" lon="6.81797">
        <ele>521.17</ele>
        <time>2011-01-23T10:12:54Z</time>
      </trkpt>
      <trkpt lat="43.49965" lon="6.81797">
        <ele>522.13</ele>
        <time>2011-01-23T10:13:00Z</time>
      </trkpt>
      <trkpt lat="43.4996" lon="6.81795">
        <ele>520.69</ele>
        <time>2011-01-23T10:13:07Z</time>
      </trkpt>
      <trkpt lat="43.49956" lon="6.81797">
        <ele>520.21</ele>
        <time>2011-01-23T10:13:21Z</time>
      </trkpt>
      <trkpt lat="43.49956" lon="6.81797">
        <ele>520.21</ele>
        <time>2011-01-23T10:13:37Z</time>
      </trkpt>
      <trkpt lat="43.49955" lon="6.81797">
        <ele>520.69</ele>
        <time>2011-01-23T10:13:56Z</time>
      </trkpt>
      <trkpt lat="43.49957" lon="6.81796">
        <ele>520.69</ele>
        <time>2011-01-23T10:14:06Z</time>
      </trkpt>
      <trkpt lat="43.4996" lon="6.81788">
        <ele>523.58</ele>
        <time>2011-01-23T10:14:16Z</time>
      </trkpt>
      <trkpt lat="43.49962" lon="6.81788">
        <ele>523.09</ele>
        <time>2011-01-23T10:14:19Z</time>
      </trkpt>
      <trkpt lat="43.49965" lon="6.81788">
        <ele>525.02</ele>
        <time>2011-01-23T10:14:23Z</time>
      </trkpt>
      <trkpt lat="43.49967" lon="6.81786">
        <ele>525.98</ele>
        <time>2011-01-23T10:14:26Z</time>
      </trkpt>
      <trkpt lat="43.49969" lon="6.81785">
        <ele>526.94</ele>
        <time>2011-01-23T10:14:38Z</time>
      </trkpt>
      <trkpt lat="43.49968" lon="6.81785">
        <ele>526.94</ele>
        <time>2011-01-23T10:14:59Z</time>
      </trkpt>
      <trkpt lat="43.49973" lon="6.81787">
        <ele>525.98</ele>
        <time>2011-01-23T10:15:09Z</time>
      </trkpt>
      <trkpt lat="43.49981" lon="6.81783">
        <ele>525.98</ele>
        <time>2011-01-23T10:15:24Z</time>
      </trkpt>
      <trkpt lat="43.49977" lon="6.81784">
        <ele>526.94</ele>
        <time>2011-01-23T10:15:39Z</time>
      </trkpt>
      <trkpt lat="43.49977" lon="6.81784">
        <ele>526.46</ele>
        <time>2011-01-23T10:16:00Z</time>
      </trkpt>
      <trkpt lat="43.49978" lon="6.81787">
        <ele>525.98</ele>
        <time>2011-01-23T10:16:20Z</time>
      </trkpt>
      <trkpt lat="43.49979" lon="6.81788">
        <ele>526.46</ele>
        <time>2011-01-23T10:16:21Z</time>
      </trkpt>
      <trkpt lat="43.49982" lon="6.81797">
        <ele>525.02</ele>
        <time>2011-01-23T10:16:29Z</time>
      </trkpt>
      <trkpt lat="43.49992" lon="6.81805">
        <ele>526.46</ele>
        <time>2011-01-23T10:16:44Z</time>
      </trkpt>
      <trkpt lat="43.49992" lon="6.81804">
        <ele>525.98</ele>
        <time>2011-01-23T10:17:06Z</time>
      </trkpt>
      <trkpt lat="43.49997" lon="6.8181">
        <ele>526.46</ele>
        <time>2011-01-23T10:17:18Z</time>
      </trkpt>
      <trkpt lat="43.50003" lon="6.81813">
        <ele>528.38</ele>
        <time>2011-01-23T10:17:31Z</time>
      </trkpt>
      <trkpt lat="43.50008" lon="6.81812">
        <ele>528.86</ele>
        <time>2011-01-23T10:17:46Z</time>
      </trkpt>
      <trkpt lat="43.50008" lon="6.81811">
        <ele>528.38</ele>
        <time>2011-01-23T10:18:01Z</time>
      </trkpt>
      <trkpt lat="43.50008" lon="6.81812">
        <ele>528.86</ele>
        <time>2011-01-23T10:18:34Z</time>
      </trkpt>
      <trkpt lat="43.50007" lon="6.81814">
        <ele>528.38</ele>
        <time>2011-01-23T10:18:36Z</time>
      </trkpt>
      <trkpt lat="43.50006" lon="6.81817">
        <ele>527.42</ele>
        <time>2011-01-23T10:18:38Z</time>
      </trkpt>
      <trkpt lat="43.50005" lon="6.81819">
        <ele>526.94</ele>
        <time>2011-01-23T10:18:40Z</time>
      </trkpt>
      <trkpt lat="43.50003" lon="6.81823">
        <ele>526.46</ele>
        <time>2011-01-23T10:18:55Z</time>
      </trkpt>
      <trkpt lat="43.50003" lon="6.81823">
        <ele>526.46</ele>
        <time>2011-01-23T10:19:16Z</time>
      </trkpt>
      <trkpt lat="43.50003" lon="6.81823">
        <ele>526.46</ele>
        <time>2011-01-23T10:19:43Z</time>
      </trkpt>
      <trkpt lat="43.50003" lon="6.81823">
        <ele>526.46</ele>
        <time>2011-01-23T10:19:55Z</time>
      </trkpt>
      <trkpt lat="43.50004" lon="6.81824">
        <ele>525.98</ele>
        <time>2011-01-23T10:20:15Z</time>
      </trkpt>
      <trkpt lat="43.50005" lon="6.81833">
        <ele>524.06</ele>
        <time>2011-01-23T10:20:20Z</time>
      </trkpt>
      <trkpt lat="43.50006" lon="6.81845">
        <ele>522.13</ele>
        <time>2011-01-23T10:20:27Z</time>
      </trkpt>
      <trkpt lat="43.50014" lon="6.81868">
        <ele>518.77</ele>
        <time>2011-01-23T10:20:39Z</time>
      </trkpt>
      <trkpt lat="43.50015" lon="6.8187">
        <ele>518.77</ele>
        <time>2011-01-23T10:20:40Z</time>
      </trkpt>
      <trkpt lat="43.50015" lon="6.81873">
        <ele>518.29</ele>
        <time>2011-01-23T10:20:55Z</time>
      </trkpt>
      <trkpt lat="43.50015" lon="6.81873">
        <ele>517.81</ele>
        <time>2011-01-23T10:20:56Z</time>
      </trkpt>
      <trkpt lat="43.50016" lon="6.81876">
        <ele>517.81</ele>
        <time>2011-01-23T10:20:58Z</time>
      </trkpt>
      <trkpt lat="43.50017" lon="6.81883">
        <ele>514.44</ele>
        <time>2011-01-23T10:21:10Z</time>
      </trkpt>
      <trkpt lat="43.50016" lon="6.81883">
        <ele>514.92</ele>
        <time>2011-01-23T10:21:11Z</time>
      </trkpt>
      <trkpt lat="43.5001" lon="6.8188">
        <ele>512.52</ele>
        <time>2011-01-23T10:21:17Z</time>
      </trkpt>
      <trkpt lat="43.49997" lon="6.81874">
        <ele>510.12</ele>
        <time>2011-01-23T10:21:26Z</time>
      </trkpt>
      <trkpt lat="43.4998" lon="6.81867">
        <ele>507.23</ele>
        <time>2011-01-23T10:21:37Z</time>
      </trkpt>
      <trkpt lat="43.49973" lon="6.81866">
        <ele>505.79</ele>
        <time>2011-01-23T10:21:41Z</time>
      </trkpt>
      <trkpt lat="43.49963" lon="6.81861">
        <ele>503.87</ele>
        <time>2011-01-23T10:21:48Z</time>
      </trkpt>
      <trkpt lat="43.49949" lon="6.81857">
        <ele>500.5</ele>
        <time>2011-01-23T10:21:57Z</time>
      </trkpt>
      <trkpt lat="43.49941" lon="6.81856">
        <ele>498.58</ele>
        <time>2011-01-23T10:22:02Z</time>
      </trkpt>
      <trkpt lat="43.49938" lon="6.81854">
        <ele>499.06</ele>
        <time>2011-01-23T10:22:04Z</time>
      </trkpt>
      <trkpt lat="43.49931" lon="6.81856">
        <ele>497.14</ele>
        <time>2011-01-23T10:22:08Z</time>
      </trkpt>
      <trkpt lat="43.49917" lon="6.81858">
        <ele>494.74</ele>
        <time>2011-01-23T10:22:18Z</time>
      </trkpt>
      <trkpt lat="43.49908" lon="6.81863">
        <ele>492.33</ele>
        <time>2011-01-23T10:22:31Z</time>
      </trkpt>
      <trkpt lat="43.49906" lon="6.81865">
        <ele>492.33</ele>
        <time>2011-01-23T10:22:42Z</time>
      </trkpt>
      <trkpt lat="43.499" lon="6.81872">
        <ele>490.41</ele>
        <time>2011-01-23T10:22:49Z</time>
      </trkpt>
      <trkpt lat="43.49896" lon="6.81882">
        <ele>488.49</ele>
        <time>2011-01-23T10:22:56Z</time>
      </trkpt>
      <trkpt lat="43.49896" lon="6.81886">
        <ele>487.53</ele>
        <time>2011-01-23T10:22:58Z</time>
      </trkpt>
      <trkpt lat="43.49894" lon="6.81892">
        <ele>486.56</ele>
        <time>2011-01-23T10:23:02Z</time>
      </trkpt>
      <trkpt lat="43.4989" lon="6.81899">
        <ele>485.12</ele>
        <time>2011-01-23T10:23:07Z</time>
      </trkpt>
      <trkpt lat="43.49888" lon="6.81904">
        <ele>483.68</ele>
        <time>2011-01-23T10:23:12Z</time>
      </trkpt>
      <trkpt lat="43.49886" lon="6.81906">
        <ele>484.16</ele>
        <time>2011-01-23T10:23:15Z</time>
      </trkpt>
      <trkpt lat="43.49883" lon="6.81906">
        <ele>482.72</ele>
        <time>2011-01-23T10:23:18Z</time>
      </trkpt>
      <trkpt lat="43.49871" lon="6.81903">
        <ele>478.39</ele>
        <time>2011-01-23T10:23:31Z</time>
      </trkpt>
      <trkpt lat="43.49871" lon="6.81904">
        <ele>478.87</ele>
        <time>2011-01-23T10:23:32Z</time>
      </trkpt>
      <trkpt lat="43.4987" lon="6.81907">
        <ele>477.91</ele>
        <time>2011-01-23T10:23:34Z</time>
      </trkpt>
      <trkpt lat="43.49867" lon="6.81921">
        <ele>475.03</ele>
        <time>2011-01-23T10:23:44Z</time>
      </trkpt>
      <trkpt lat="43.49867" lon="6.81922">
        <ele>474.55</ele>
        <time>2011-01-23T10:23:45Z</time>
      </trkpt>
      <trkpt lat="43.49868" lon="6.81933">
        <ele>472.63</ele>
        <time>2011-01-23T10:23:54Z</time>
      </trkpt>
      <trkpt lat="43.49865" lon="6.81935">
        <ele>471.18</ele>
        <time>2011-01-23T10:23:58Z</time>
      </trkpt>
      <trkpt lat="43.4986" lon="6.81937">
        <ele>469.74</ele>
        <time>2011-01-23T10:24:03Z</time>
      </trkpt>
      <trkpt lat="43.49856" lon="6.81936">
        <ele>468.3</ele>
        <time>2011-01-23T10:24:07Z</time>
      </trkpt>
      <trkpt lat="43.49849" lon="6.81937">
        <ele>465.9</ele>
        <time>2011-01-23T10:24:14Z</time>
      </trkpt>
      <trkpt lat="43.4984" lon="6.8194">
        <ele>463.49</ele>
        <time>2011-01-23T10:24:24Z</time>
      </trkpt>
      <trkpt lat="43.49835" lon="6.81931">
        <ele>460.61</ele>
        <time>2011-01-23T10:24:35Z</time>
      </trkpt>
      <trkpt lat="43.49835" lon="6.8193">
        <ele>460.61</ele>
        <time>2011-01-23T10:24:36Z</time>
      </trkpt>
      <trkpt lat="43.49832" lon="6.81918">
        <ele>457.24</ele>
        <time>2011-01-23T10:24:49Z</time>
      </trkpt>
      <trkpt lat="43.49831" lon="6.81908">
        <ele>454.84</ele>
        <time>2011-01-23T10:25:02Z</time>
      </trkpt>
      <trkpt lat="43.4983" lon="6.81908">
        <ele>454.36</ele>
        <time>2011-01-23T10:25:03Z</time>
      </trkpt>
      <trkpt lat="43.49823" lon="6.81908">
        <ele>451.96</ele>
        <time>2011-01-23T10:25:11Z</time>
      </trkpt>
      <trkpt lat="43.49815" lon="6.81912">
        <ele>450.03</ele>
        <time>2011-01-23T10:25:17Z</time>
      </trkpt>
      <trkpt lat="43.4981" lon="6.81915">
        <ele>447.15</ele>
        <time>2011-01-23T10:25:29Z</time>
      </trkpt>
      <trkpt lat="43.49806" lon="6.81912">
        <ele>444.75</ele>
        <time>2011-01-23T10:25:42Z</time>
      </trkpt>
      <trkpt lat="43.49806" lon="6.81906">
        <ele>442.82</ele>
        <time>2011-01-23T10:25:55Z</time>
      </trkpt>
      <trkpt lat="43.49805" lon="6.81904">
        <ele>440.42</ele>
        <time>2011-01-23T10:26:00Z</time>
      </trkpt>
      <trkpt lat="43.49802" lon="6.81903">
        <ele>439.94</ele>
        <time>2011-01-23T10:26:02Z</time>
      </trkpt>
      <trkpt lat="43.49799" lon="6.81897">
        <ele>435.61</ele>
        <time>2011-01-23T10:26:13Z</time>
      </trkpt>
      <trkpt lat="43.49799" lon="6.81896">
        <ele>436.1</ele>
        <time>2011-01-23T10:26:14Z</time>
      </trkpt>
      <trkpt lat="43.49796" lon="6.81895">
        <ele>435.61</ele>
        <time>2011-01-23T10:26:16Z</time>
      </trkpt>
      <trkpt lat="43.49789" lon="6.81899">
        <ele>434.65</ele>
        <time>2011-01-23T10:26:21Z</time>
      </trkpt>
      <trkpt lat="43.49776" lon="6.81911">
        <ele>431.29</ele>
        <time>2011-01-23T10:26:33Z</time>
      </trkpt>
      <trkpt lat="43.49762" lon="6.81925">
        <ele>428.89</ele>
        <time>2011-01-23T10:26:46Z</time>
      </trkpt>
      <trkpt lat="43.49753" lon="6.81942">
        <ele>425.52</ele>
        <time>2011-01-23T10:26:59Z</time>
      </trkpt>
      <trkpt lat="43.49749" lon="6.81951">
        <ele>424.56</ele>
        <time>2011-01-23T10:27:05Z</time>
      </trkpt>
      <trkpt lat="43.49749" lon="6.81957">
        <ele>423.12</ele>
        <time>2011-01-23T10:27:08Z</time>
      </trkpt>
      <trkpt lat="43.49749" lon="6.81966">
        <ele>422.16</ele>
        <time>2011-01-23T10:27:15Z</time>
      </trkpt>
      <trkpt lat="43.49756" lon="6.81976">
        <ele>421.19</ele>
        <time>2011-01-23T10:27:21Z</time>
      </trkpt>
      <trkpt lat="43.49759" lon="6.81984">
        <ele>418.79</ele>
        <time>2011-01-23T10:27:30Z</time>
      </trkpt>
      <trkpt lat="43.49759" lon="6.81985">
        <ele>419.27</ele>
        <time>2011-01-23T10:27:31Z</time>
      </trkpt>
      <trkpt lat="43.49741" lon="6.81989">
        <ele>415.43</ele>
        <time>2011-01-23T10:27:45Z</time>
      </trkpt>
      <trkpt lat="43.49732" lon="6.81986">
        <ele>414.47</ele>
        <time>2011-01-23T10:27:53Z</time>
      </trkpt>
      <trkpt lat="43.49729" lon="6.81985">
        <ele>412.54</ele>
        <time>2011-01-23T10:27:56Z</time>
      </trkpt>
      <trkpt lat="43.49714" lon="6.81973">
        <ele>409.18</ele>
        <time>2011-01-23T10:28:09Z</time>
      </trkpt>
      <trkpt lat="43.49712" lon="6.81971">
        <ele>409.18</ele>
        <time>2011-01-23T10:28:11Z</time>
      </trkpt>
      <trkpt lat="43.49711" lon="6.81963">
        <ele>407.74</ele>
        <time>2011-01-23T10:28:17Z</time>
      </trkpt>
      <trkpt lat="43.49707" lon="6.81951">
        <ele>404.85</ele>
        <time>2011-01-23T10:28:31Z</time>
      </trkpt>
      <trkpt lat="43.49707" lon="6.81951">
        <ele>406.29</ele>
        <time>2011-01-23T10:29:03Z</time>
      </trkpt>
      <trkpt lat="43.49709" lon="6.8195">
        <ele>405.33</ele>
        <time>2011-01-23T10:29:25Z</time>
      </trkpt>
      <trkpt lat="43.49709" lon="6.8195">
        <ele>405.81</ele>
        <time>2011-01-23T10:29:44Z</time>
      </trkpt>
      <trkpt lat="43.49708" lon="6.81949">
        <ele>404.37</ele>
        <time>2011-01-23T10:30:05Z</time>
      </trkpt>
      <trkpt lat="43.49707" lon="6.81936">
        <ele>402.93</ele>
        <time>2011-01-23T10:30:09Z</time>
      </trkpt>
      <trkpt lat="43.49707" lon="6.81933">
        <ele>402.93</ele>
        <time>2011-01-23T10:30:10Z</time>
      </trkpt>
      <trkpt lat="43.49708" lon="6.81924">
        <ele>403.89</ele>
        <time>2011-01-23T10:30:12Z</time>
      </trkpt>
      <trkpt lat="43.49707" lon="6.81916">
        <ele>401.49</ele>
        <time>2011-01-23T10:30:14Z</time>
      </trkpt>
      <trkpt lat="43.49708" lon="6.81896">
        <ele>396.2</ele>
        <time>2011-01-23T10:30:19Z</time>
      </trkpt>
      <trkpt lat="43.49708" lon="6.81893">
        <ele>399.57</ele>
        <time>2011-01-23T10:30:20Z</time>
      </trkpt>
      <trkpt lat="43.49709" lon="6.81886">
        <ele>394.76</ele>
        <time>2011-01-23T10:30:22Z</time>
      </trkpt>
      <trkpt lat="43.4971" lon="6.81882">
        <ele>395.24</ele>
        <time>2011-01-23T10:30:23Z</time>
      </trkpt>
      <trkpt lat="43.49708" lon="6.81869">
        <ele>392.36</ele>
        <time>2011-01-23T10:30:27Z</time>
      </trkpt>
      <trkpt lat="43.49704" lon="6.8185">
        <ele>389.95</ele>
        <time>2011-01-23T10:30:35Z</time>
      </trkpt>
      <trkpt lat="43.49692" lon="6.81839">
        <ele>387.55</ele>
        <time>2011-01-23T10:30:47Z</time>
      </trkpt>
      <trkpt lat="43.49673" lon="6.81834">
        <ele>384.18</ele>
        <time>2011-01-23T10:30:59Z</time>
      </trkpt>
      <trkpt lat="43.49669" lon="6.81833">
        <ele>383.7</ele>
        <time>2011-01-23T10:31:01Z</time>
      </trkpt>
      <trkpt lat="43.49649" lon="6.8183">
        <ele>381.3</ele>
        <time>2011-01-23T10:31:14Z</time>
      </trkpt>
      <trkpt lat="43.49643" lon="6.81829">
        <ele>379.86</ele>
        <time>2011-01-23T10:31:18Z</time>
      </trkpt>
      <trkpt lat="43.49638" lon="6.81828">
        <ele>378.9</ele>
        <time>2011-01-23T10:31:22Z</time>
      </trkpt>
      <trkpt lat="43.49633" lon="6.81828">
        <ele>377.94</ele>
        <time>2011-01-23T10:31:24Z</time>
      </trkpt>
      <trkpt lat="43.4962" lon="6.81829">
        <ele>376.01</ele>
        <time>2011-01-23T10:31:31Z</time>
      </trkpt>
      <trkpt lat="43.49599" lon="6.81824">
        <ele>373.13</ele>
        <time>2011-01-23T10:31:43Z</time>
      </trkpt>
      <trkpt lat="43.49597" lon="6.81822">
        <ele>372.65</ele>
        <time>2011-01-23T10:31:45Z</time>
      </trkpt>
      <trkpt lat="43.49593" lon="6.81821">
        <ele>371.69</ele>
        <time>2011-01-23T10:31:47Z</time>
      </trkpt>
      <trkpt lat="43.49585" lon="6.81819">
        <ele>370.73</ele>
        <time>2011-01-23T10:32:02Z</time>
      </trkpt>
      <trkpt lat="43.49585" lon="6.81819">
        <ele>370.73</ele>
        <time>2011-01-23T10:32:31Z</time>
      </trkpt>
      <trkpt lat="43.49585" lon="6.81819">
        <ele>370.73</ele>
        <time>2011-01-23T10:32:53Z</time>
      </trkpt>
      <trkpt lat="43.49583" lon="6.81818">
        <ele>371.21</ele>
        <time>2011-01-23T10:33:16Z</time>
      </trkpt>
      <trkpt lat="43.49583" lon="6.81811">
        <ele>371.21</ele>
        <time>2011-01-23T10:33:20Z</time>
      </trkpt>
      <trkpt lat="43.49589" lon="6.81779">
        <ele>369.76</ele>
        <time>2011-01-23T10:33:36Z</time>
      </trkpt>
      <trkpt lat="43.49599" lon="6.81749">
        <ele>369.28</ele>
        <time>2011-01-23T10:33:52Z</time>
      </trkpt>
      <trkpt lat="43.49611" lon="6.81718">
        <ele>368.32</ele>
        <time>2011-01-23T10:34:09Z</time>
      </trkpt>
      <trkpt lat="43.49624" lon="6.8169">
        <ele>367.84</ele>
        <time>2011-01-23T10:34:25Z</time>
      </trkpt>
      <trkpt lat="43.49639" lon="6.81662">
        <ele>366.4</ele>
        <time>2011-01-23T10:34:43Z</time>
      </trkpt>
      <trkpt lat="43.49653" lon="6.81639">
        <ele>365.92</ele>
        <time>2011-01-23T10:34:58Z</time>
      </trkpt>
      <trkpt lat="43.49667" lon="6.8162">
        <ele>365.44</ele>
        <time>2011-01-23T10:35:12Z</time>
      </trkpt>
      <trkpt lat="43.49682" lon="6.81596">
        <ele>364.48</ele>
        <time>2011-01-23T10:35:28Z</time>
      </trkpt>
      <trkpt lat="43.49694" lon="6.81582">
        <ele>364</ele>
        <time>2011-01-23T10:35:38Z</time>
      </trkpt>
      <trkpt lat="43.49715" lon="6.81566">
        <ele>363.52</ele>
        <time>2011-01-23T10:35:54Z</time>
      </trkpt>
      <trkpt lat="43.49717" lon="6.81565">
        <ele>363.52</ele>
        <time>2011-01-23T10:35:55Z</time>
      </trkpt>
      <trkpt lat="43.49718" lon="6.81536">
        <ele>363.52</ele>
        <time>2011-01-23T10:36:11Z</time>
      </trkpt>
      <trkpt lat="43.49711" lon="6.81507">
        <ele>362.55</ele>
        <time>2011-01-23T10:36:26Z</time>
      </trkpt>
      <trkpt lat="43.49705" lon="6.81473">
        <ele>362.07</ele>
        <time>2011-01-23T10:36:43Z</time>
      </trkpt>
      <trkpt lat="43.49709" lon="6.8144">
        <ele>360.63</ele>
        <time>2011-01-23T10:36:59Z</time>
      </trkpt>
      <trkpt lat="43.49725" lon="6.81413">
        <ele>359.67</ele>
        <time>2011-01-23T10:37:16Z</time>
      </trkpt>
      <trkpt lat="43.49746" lon="6.81399">
        <ele>358.71</ele>
        <time>2011-01-23T10:37:32Z</time>
      </trkpt>
      <trkpt lat="43.49766" lon="6.81389">
        <ele>358.71</ele>
        <time>2011-01-23T10:37:46Z</time>
      </trkpt>
      <trkpt lat="43.49791" lon="6.81382">
        <ele>358.23</ele>
        <time>2011-01-23T10:38:04Z</time>
      </trkpt>
      <trkpt lat="43.49812" lon="6.81381">
        <ele>357.27</ele>
        <time>2011-01-23T10:38:18Z</time>
      </trkpt>
      <trkpt lat="43.49829" lon="6.81378">
        <ele>356.79</ele>
        <time>2011-01-23T10:38:31Z</time>
      </trkpt>
      <trkpt lat="43.49848" lon="6.8138">
        <ele>355.83</ele>
        <time>2011-01-23T10:38:44Z</time>
      </trkpt>
      <trkpt lat="43.49852" lon="6.8138">
        <ele>356.31</ele>
        <time>2011-01-23T10:38:48Z</time>
      </trkpt>
      <trkpt lat="43.49873" lon="6.81378">
        <ele>356.31</ele>
        <time>2011-01-23T10:39:03Z</time>
      </trkpt>
      <trkpt lat="43.49892" lon="6.81378">
        <ele>356.79</ele>
        <time>2011-01-23T10:39:16Z</time>
      </trkpt>
      <trkpt lat="43.49906" lon="6.81382">
        <ele>357.27</ele>
        <time>2011-01-23T10:39:28Z</time>
      </trkpt>
      <trkpt lat="43.49927" lon="6.81392">
        <ele>358.23</ele>
        <time>2011-01-23T10:39:43Z</time>
      </trkpt>
      <trkpt lat="43.49942" lon="6.8139">
        <ele>358.71</ele>
        <time>2011-01-23T10:39:54Z</time>
      </trkpt>
      <trkpt lat="43.49962" lon="6.81374">
        <ele>359.19</ele>
        <time>2011-01-23T10:40:10Z</time>
      </trkpt>
      <trkpt lat="43.49974" lon="6.81345">
        <ele>361.11</ele>
        <time>2011-01-23T10:40:27Z</time>
      </trkpt>
      <trkpt lat="43.49976" lon="6.8131">
        <ele>362.07</ele>
        <time>2011-01-23T10:40:45Z</time>
      </trkpt>
      <trkpt lat="43.49971" lon="6.81278">
        <ele>363.04</ele>
        <time>2011-01-23T10:41:02Z</time>
      </trkpt>
      <trkpt lat="43.49968" lon="6.81254">
        <ele>363.04</ele>
        <time>2011-01-23T10:41:15Z</time>
      </trkpt>
      <trkpt lat="43.49961" lon="6.81225">
        <ele>364.48</ele>
        <time>2011-01-23T10:41:31Z</time>
      </trkpt>
      <trkpt lat="43.49959" lon="6.81212">
        <ele>364.96</ele>
        <time>2011-01-23T10:41:45Z</time>
      </trkpt>
      <trkpt lat="43.49958" lon="6.81209">
        <ele>364.96</ele>
        <time>2011-01-23T10:41:47Z</time>
      </trkpt>
      <trkpt lat="43.49954" lon="6.81185">
        <ele>365.44</ele>
        <time>2011-01-23T10:41:59Z</time>
      </trkpt>
      <trkpt lat="43.49945" lon="6.81153">
        <ele>365.92</ele>
        <time>2011-01-23T10:42:16Z</time>
      </trkpt>
      <trkpt lat="43.49937" lon="6.81122">
        <ele>366.4</ele>
        <time>2011-01-23T10:42:33Z</time>
      </trkpt>
      <trkpt lat="43.49928" lon="6.81097">
        <ele>367.36</ele>
        <time>2011-01-23T10:42:47Z</time>
      </trkpt>
      <trkpt lat="43.49921" lon="6.81073">
        <ele>368.32</ele>
        <time>2011-01-23T10:43:01Z</time>
      </trkpt>
      <trkpt lat="43.49918" lon="6.81066">
        <ele>368.32</ele>
        <time>2011-01-23T10:43:05Z</time>
      </trkpt>
      <trkpt lat="43.49911" lon="6.81042">
        <ele>369.76</ele>
        <time>2011-01-23T10:43:19Z</time>
      </trkpt>
      <trkpt lat="43.49911" lon="6.8104">
        <ele>368.8</ele>
        <time>2011-01-23T10:43:20Z</time>
      </trkpt>
      <trkpt lat="43.49909" lon="6.81034">
        <ele>369.76</ele>
        <time>2011-01-23T10:43:24Z</time>
      </trkpt>
      <trkpt lat="43.49905" lon="6.81026">
        <ele>369.28</ele>
        <time>2011-01-23T10:43:29Z</time>
      </trkpt>
      <trkpt lat="43.49887" lon="6.81005">
        <ele>370.24</ele>
        <time>2011-01-23T10:43:45Z</time>
      </trkpt>
      <trkpt lat="43.49869" lon="6.80988">
        <ele>371.69</ele>
        <time>2011-01-23T10:44:01Z</time>
      </trkpt>
      <trkpt lat="43.4985" lon="6.80972">
        <ele>372.17</ele>
        <time>2011-01-23T10:44:17Z</time>
      </trkpt>
      <trkpt lat="43.49833" lon="6.80956">
        <ele>372.65</ele>
        <time>2011-01-23T10:44:32Z</time>
      </trkpt>
      <trkpt lat="43.49814" lon="6.8094">
        <ele>373.61</ele>
        <time>2011-01-23T10:44:48Z</time>
      </trkpt>
      <trkpt lat="43.49795" lon="6.80926">
        <ele>374.57</ele>
        <time>2011-01-23T10:45:04Z</time>
      </trkpt>
      <trkpt lat="43.49775" lon="6.80912">
        <ele>375.53</ele>
        <time>2011-01-23T10:45:20Z</time>
      </trkpt>
      <trkpt lat="43.49759" lon="6.80897">
        <ele>376.01</ele>
        <time>2011-01-23T10:45:35Z</time>
      </trkpt>
      <trkpt lat="43.49747" lon="6.80869">
        <ele>376.49</ele>
        <time>2011-01-23T10:45:52Z</time>
      </trkpt>
      <trkpt lat="43.49744" lon="6.80845">
        <ele>376.97</ele>
        <time>2011-01-23T10:46:07Z</time>
      </trkpt>
      <trkpt lat="43.49744" lon="6.80844">
        <ele>376.97</ele>
        <time>2011-01-23T10:46:10Z</time>
      </trkpt>
      <trkpt lat="43.49741" lon="6.80823">
        <ele>377.45</ele>
        <time>2011-01-23T10:46:22Z</time>
      </trkpt>
      <trkpt lat="43.4974" lon="6.80794">
        <ele>378.42</ele>
        <time>2011-01-23T10:46:38Z</time>
      </trkpt>
      <trkpt lat="43.49738" lon="6.80764">
        <ele>379.38</ele>
        <time>2011-01-23T10:46:54Z</time>
      </trkpt>
      <trkpt lat="43.49734" lon="6.80735">
        <ele>378.9</ele>
        <time>2011-01-23T10:47:11Z</time>
      </trkpt>
      <trkpt lat="43.49729" lon="6.80701">
        <ele>380.34</ele>
        <time>2011-01-23T10:47:28Z</time>
      </trkpt>
      <trkpt lat="43.49727" lon="6.80691">
        <ele>380.82</ele>
        <time>2011-01-23T10:47:34Z</time>
      </trkpt>
      <trkpt lat="43.49711" lon="6.80666">
        <ele>381.78</ele>
        <time>2011-01-23T10:47:51Z</time>
      </trkpt>
      <trkpt lat="43.49696" lon="6.80649">
        <ele>382.26</ele>
        <time>2011-01-23T10:48:06Z</time>
      </trkpt>
      <trkpt lat="43.49683" lon="6.80636">
        <ele>383.22</ele>
        <time>2011-01-23T10:48:18Z</time>
      </trkpt>
      <trkpt lat="43.49686" lon="6.80609">
        <ele>382.74</ele>
        <time>2011-01-23T10:48:34Z</time>
      </trkpt>
      <trkpt lat="43.49701" lon="6.8059">
        <ele>383.22</ele>
        <time>2011-01-23T10:48:49Z</time>
      </trkpt>
      <trkpt lat="43.49719" lon="6.80569">
        <ele>382.74</ele>
        <time>2011-01-23T10:49:05Z</time>
      </trkpt>
      <trkpt lat="43.49734" lon="6.8055">
        <ele>383.22</ele>
        <time>2011-01-23T10:49:21Z</time>
      </trkpt>
      <trkpt lat="43.49735" lon="6.8055">
        <ele>383.22</ele>
        <time>2011-01-23T10:49:23Z</time>
      </trkpt>
      <trkpt lat="43.49737" lon="6.80551">
        <ele>383.22</ele>
        <time>2011-01-23T10:49:26Z</time>
      </trkpt>
      <trkpt lat="43.4974" lon="6.80552">
        <ele>383.7</ele>
        <time>2011-01-23T10:49:29Z</time>
      </trkpt>
      <trkpt lat="43.49745" lon="6.80556">
        <ele>384.18</ele>
        <time>2011-01-23T10:49:48Z</time>
      </trkpt>
      <trkpt lat="43.49745" lon="6.80556">
        <ele>384.18</ele>
        <time>2011-01-23T10:50:17Z</time>
      </trkpt>
      <trkpt lat="43.49745" lon="6.80556">
        <ele>384.66</ele>
        <time>2011-01-23T10:50:51Z</time>
      </trkpt>
      <trkpt lat="43.49745" lon="6.80557">
        <ele>384.18</ele>
        <time>2011-01-23T10:51:15Z</time>
      </trkpt>
      <trkpt lat="43.49745" lon="6.80557">
        <ele>384.18</ele>
        <time>2011-01-23T10:51:41Z</time>
      </trkpt>
      <trkpt lat="43.49747" lon="6.80558">
        <ele>385.63</ele>
        <time>2011-01-23T10:51:59Z</time>
      </trkpt>
      <trkpt lat="43.49752" lon="6.80557">
        <ele>384.66</ele>
        <time>2011-01-23T10:52:14Z</time>
      </trkpt>
      <trkpt lat="43.49747" lon="6.8055">
        <ele>384.18</ele>
        <time>2011-01-23T10:52:29Z</time>
      </trkpt>
      <trkpt lat="43.49744" lon="6.80542">
        <ele>383.7</ele>
        <time>2011-01-23T10:52:42Z</time>
      </trkpt>
      <trkpt lat="43.4974" lon="6.80536">
        <ele>383.22</ele>
        <time>2011-01-23T10:52:56Z</time>
      </trkpt>
      <trkpt lat="43.4974" lon="6.80534">
        <ele>383.22</ele>
        <time>2011-01-23T10:52:57Z</time>
      </trkpt>
      <trkpt lat="43.49738" lon="6.80524">
        <ele>381.78</ele>
        <time>2011-01-23T10:53:05Z</time>
      </trkpt>
      <trkpt lat="43.49731" lon="6.80499">
        <ele>379.86</ele>
        <time>2011-01-23T10:53:22Z</time>
      </trkpt>
      <trkpt lat="43.49727" lon="6.8048">
        <ele>378.9</ele>
        <time>2011-01-23T10:53:34Z</time>
      </trkpt>
      <trkpt lat="43.49717" lon="6.80458">
        <ele>377.45</ele>
        <time>2011-01-23T10:53:50Z</time>
      </trkpt>
      <trkpt lat="43.49707" lon="6.80438">
        <ele>376.49</ele>
        <time>2011-01-23T10:54:04Z</time>
      </trkpt>
      <trkpt lat="43.49696" lon="6.80422">
        <ele>375.53</ele>
        <time>2011-01-23T10:54:19Z</time>
      </trkpt>
      <trkpt lat="43.49688" lon="6.80414">
        <ele>375.53</ele>
        <time>2011-01-23T10:54:26Z</time>
      </trkpt>
      <trkpt lat="43.49683" lon="6.8041">
        <ele>376.01</ele>
        <time>2011-01-23T10:54:31Z</time>
      </trkpt>
      <trkpt lat="43.49667" lon="6.80392">
        <ele>375.05</ele>
        <time>2011-01-23T10:54:47Z</time>
      </trkpt>
      <trkpt lat="43.49654" lon="6.80372">
        <ele>373.61</ele>
        <time>2011-01-23T10:55:01Z</time>
      </trkpt>
      <trkpt lat="43.49648" lon="6.80347">
        <ele>372.17</ele>
        <time>2011-01-23T10:55:16Z</time>
      </trkpt>
      <trkpt lat="43.49648" lon="6.80345">
        <ele>372.17</ele>
        <time>2011-01-23T10:55:19Z</time>
      </trkpt>
      <trkpt lat="43.49648" lon="6.80325">
        <ele>370.73</ele>
        <time>2011-01-23T10:55:31Z</time>
      </trkpt>
      <trkpt lat="43.49644" lon="6.80301">
        <ele>369.28</ele>
        <time>2011-01-23T10:55:46Z</time>
      </trkpt>
      <trkpt lat="43.49631" lon="6.8028">
        <ele>368.8</ele>
        <time>2011-01-23T10:56:02Z</time>
      </trkpt>
      <trkpt lat="43.49618" lon="6.8026">
        <ele>367.84</ele>
        <time>2011-01-23T10:56:18Z</time>
      </trkpt>
      <trkpt lat="43.49606" lon="6.80242">
        <ele>366.4</ele>
        <time>2011-01-23T10:56:32Z</time>
      </trkpt>
      <trkpt lat="43.496" lon="6.80229">
        <ele>365.44</ele>
        <time>2011-01-23T10:56:41Z</time>
      </trkpt>
      <trkpt lat="43.4959" lon="6.80206">
        <ele>364.48</ele>
        <time>2011-01-23T10:56:56Z</time>
      </trkpt>
      <trkpt lat="43.49582" lon="6.80184">
        <ele>364.48</ele>
        <time>2011-01-23T10:57:10Z</time>
      </trkpt>
      <trkpt lat="43.49582" lon="6.80179">
        <ele>364</ele>
        <time>2011-01-23T10:57:13Z</time>
      </trkpt>
      <trkpt lat="43.49581" lon="6.80175">
        <ele>364</ele>
        <time>2011-01-23T10:57:15Z</time>
      </trkpt>
      <trkpt lat="43.49595" lon="6.8017">
        <ele>363.04</ele>
        <time>2011-01-23T10:57:29Z</time>
      </trkpt>
      <trkpt lat="43.49598" lon="6.8017">
        <ele>363.52</ele>
        <time>2011-01-23T10:57:38Z</time>
      </trkpt>
      <trkpt lat="43.49622" lon="6.80167">
        <ele>362.55</ele>
        <time>2011-01-23T10:57:56Z</time>
      </trkpt>
      <trkpt lat="43.49641" lon="6.80167">
        <ele>362.07</ele>
        <time>2011-01-23T10:58:13Z</time>
      </trkpt>
      <trkpt lat="43.49647" lon="6.80163">
        <ele>362.07</ele>
        <time>2011-01-23T10:58:25Z</time>
      </trkpt>
      <trkpt lat="43.49647" lon="6.80163">
        <ele>362.07</ele>
        <time>2011-01-23T10:58:26Z</time>
      </trkpt>
      <trkpt lat="43.4965" lon="6.80162">
        <ele>362.07</ele>
        <time>2011-01-23T10:58:29Z</time>
      </trkpt>
      <trkpt lat="43.49652" lon="6.8016">
        <ele>361.59</ele>
        <time>2011-01-23T10:58:46Z</time>
      </trkpt>
      <trkpt lat="43.49651" lon="6.80159">
        <ele>362.07</ele>
        <time>2011-01-23T10:59:05Z</time>
      </trkpt>
      <trkpt lat="43.49649" lon="6.80159">
        <ele>362.55</ele>
        <time>2011-01-23T10:59:30Z</time>
      </trkpt>
      <trkpt lat="43.49647" lon="6.80161">
        <ele>362.07</ele>
        <time>2011-01-23T10:59:49Z</time>
      </trkpt>
      <trkpt lat="43.49645" lon="6.80163">
        <ele>362.55</ele>
        <time>2011-01-23T11:00:12Z</time>
      </trkpt>
      <trkpt lat="43.49637" lon="6.80162">
        <ele>363.04</ele>
        <time>2011-01-23T11:00:27Z</time>
      </trkpt>
      <trkpt lat="43.49633" lon="6.80163">
        <ele>362.55</ele>
        <time>2011-01-23T11:00:42Z</time>
      </trkpt>
      <trkpt lat="43.49633" lon="6.80163">
        <ele>363.52</ele>
        <time>2011-01-23T11:00:43Z</time>
      </trkpt>
      <trkpt lat="43.49629" lon="6.80165">
        <ele>363.04</ele>
        <time>2011-01-23T11:01:01Z</time>
      </trkpt>
      <trkpt lat="43.49629" lon="6.80165">
        <ele>363.52</ele>
        <time>2011-01-23T11:01:26Z</time>
      </trkpt>
      <trkpt lat="43.49629" lon="6.80166">
        <ele>363.52</ele>
        <time>2011-01-23T11:01:35Z</time>
      </trkpt>
      <trkpt lat="43.49626" lon="6.80164">
        <ele>364</ele>
        <time>2011-01-23T11:01:39Z</time>
      </trkpt>
      <trkpt lat="43.49615" lon="6.80164">
        <ele>364</ele>
        <time>2011-01-23T11:01:48Z</time>
      </trkpt>
      <trkpt lat="43.496" lon="6.80166">
        <ele>364</ele>
        <time>2011-01-23T11:02:01Z</time>
      </trkpt>
      <trkpt lat="43.49583" lon="6.80168">
        <ele>364.48</ele>
        <time>2011-01-23T11:02:17Z</time>
      </trkpt>
      <trkpt lat="43.49574" lon="6.80171">
        <ele>364.48</ele>
        <time>2011-01-23T11:02:33Z</time>
      </trkpt>
      <trkpt lat="43.49571" lon="6.80171">
        <ele>364.48</ele>
        <time>2011-01-23T11:02:50Z</time>
      </trkpt>
      <trkpt lat="43.49569" lon="6.80171">
        <ele>364.96</ele>
        <time>2011-01-23T11:02:57Z</time>
      </trkpt>
      <trkpt lat="43.49565" lon="6.8017">
        <ele>364.96</ele>
        <time>2011-01-23T11:03:01Z</time>
      </trkpt>
      <trkpt lat="43.49556" lon="6.80172">
        <ele>364.96</ele>
        <time>2011-01-23T11:03:13Z</time>
      </trkpt>
      <trkpt lat="43.49553" lon="6.80174">
        <ele>364.96</ele>
        <time>2011-01-23T11:03:16Z</time>
      </trkpt>
      <trkpt lat="43.49535" lon="6.80182">
        <ele>364</ele>
        <time>2011-01-23T11:03:32Z</time>
      </trkpt>
      <trkpt lat="43.4952" lon="6.80188">
        <ele>363.52</ele>
        <time>2011-01-23T11:03:46Z</time>
      </trkpt>
      <trkpt lat="43.49501" lon="6.80194">
        <ele>363.52</ele>
        <time>2011-01-23T11:04:00Z</time>
      </trkpt>
      <trkpt lat="43.49499" lon="6.80196">
        <ele>362.55</ele>
        <time>2011-01-23T11:04:02Z</time>
      </trkpt>
      <trkpt lat="43.49494" lon="6.80198">
        <ele>363.04</ele>
        <time>2011-01-23T11:04:06Z</time>
      </trkpt>
      <trkpt lat="43.49476" lon="6.80203">
        <ele>362.07</ele>
        <time>2011-01-23T11:04:21Z</time>
      </trkpt>
      <trkpt lat="43.49462" lon="6.80204">
        <ele>362.07</ele>
        <time>2011-01-23T11:04:32Z</time>
      </trkpt>
      <trkpt lat="43.49451" lon="6.80201">
        <ele>362.55</ele>
        <time>2011-01-23T11:04:49Z</time>
      </trkpt>
      <trkpt lat="43.49448" lon="6.80197">
        <ele>362.55</ele>
        <time>2011-01-23T11:05:02Z</time>
      </trkpt>
      <trkpt lat="43.49446" lon="6.80194">
        <ele>361.59</ele>
        <time>2011-01-23T11:05:05Z</time>
      </trkpt>
      <trkpt lat="43.49445" lon="6.80192">
        <ele>362.07</ele>
        <time>2011-01-23T11:05:07Z</time>
      </trkpt>
      <trkpt lat="43.49433" lon="6.80169">
        <ele>363.52</ele>
        <time>2011-01-23T11:05:26Z</time>
      </trkpt>
      <trkpt lat="43.49429" lon="6.80146">
        <ele>365.44</ele>
        <time>2011-01-23T11:05:42Z</time>
      </trkpt>
      <trkpt lat="43.49428" lon="6.80142">
        <ele>364.96</ele>
        <time>2011-01-23T11:05:45Z</time>
      </trkpt>
      <trkpt lat="43.4943" lon="6.80124">
        <ele>367.36</ele>
        <time>2011-01-23T11:06:01Z</time>
      </trkpt>
      <trkpt lat="43.49435" lon="6.80104">
        <ele>368.32</ele>
        <time>2011-01-23T11:06:16Z</time>
      </trkpt>
      <trkpt lat="43.49438" lon="6.80085">
        <ele>369.76</ele>
        <time>2011-01-23T11:06:32Z</time>
      </trkpt>
      <trkpt lat="43.49438" lon="6.8007">
        <ele>370.24</ele>
        <time>2011-01-23T11:06:48Z</time>
      </trkpt>
      <trkpt lat="43.49437" lon="6.80068">
        <ele>370.24</ele>
        <time>2011-01-23T11:06:51Z</time>
      </trkpt>
      <trkpt lat="43.49431" lon="6.80058">
        <ele>370.24</ele>
        <time>2011-01-23T11:06:59Z</time>
      </trkpt>
      <trkpt lat="43.49417" lon="6.80046">
        <ele>371.69</ele>
        <time>2011-01-23T11:07:15Z</time>
      </trkpt>
      <trkpt lat="43.49403" lon="6.80033">
        <ele>373.61</ele>
        <time>2011-01-23T11:07:31Z</time>
      </trkpt>
      <trkpt lat="43.49389" lon="6.80021">
        <ele>375.05</ele>
        <time>2011-01-23T11:07:45Z</time>
      </trkpt>
      <trkpt lat="43.49377" lon="6.80008">
        <ele>375.53</ele>
        <time>2011-01-23T11:07:59Z</time>
      </trkpt>
      <trkpt lat="43.49366" lon="6.79992">
        <ele>376.97</ele>
        <time>2011-01-23T11:08:15Z</time>
      </trkpt>
      <trkpt lat="43.49364" lon="6.79988">
        <ele>377.45</ele>
        <time>2011-01-23T11:08:33Z</time>
      </trkpt>
      <trkpt lat="43.4936" lon="6.79979">
        <ele>377.94</ele>
        <time>2011-01-23T11:08:51Z</time>
      </trkpt>
      <trkpt lat="43.4936" lon="6.79978">
        <ele>378.42</ele>
        <time>2011-01-23T11:08:52Z</time>
      </trkpt>
      <trkpt lat="43.49349" lon="6.79966">
        <ele>379.86</ele>
        <time>2011-01-23T11:09:06Z</time>
      </trkpt>
      <trkpt lat="43.49336" lon="6.79957">
        <ele>381.3</ele>
        <time>2011-01-23T11:09:22Z</time>
      </trkpt>
      <trkpt lat="43.49331" lon="6.79955">
        <ele>381.3</ele>
        <time>2011-01-23T11:09:28Z</time>
      </trkpt>
      <trkpt lat="43.49324" lon="6.7995">
        <ele>382.26</ele>
        <time>2011-01-23T11:09:43Z</time>
      </trkpt>
      <trkpt lat="43.49322" lon="6.79947">
        <ele>382.74</ele>
        <time>2011-01-23T11:10:04Z</time>
      </trkpt>
      <trkpt lat="43.49317" lon="6.79943">
        <ele>383.22</ele>
        <time>2011-01-23T11:10:17Z</time>
      </trkpt>
      <trkpt lat="43.49316" lon="6.79941">
        <ele>384.18</ele>
        <time>2011-01-23T11:10:19Z</time>
      </trkpt>
      <trkpt lat="43.49305" lon="6.79928">
        <ele>385.15</ele>
        <time>2011-01-23T11:10:33Z</time>
      </trkpt>
      <trkpt lat="43.49299" lon="6.79923">
        <ele>385.63</ele>
        <time>2011-01-23T11:10:38Z</time>
      </trkpt>
      <trkpt lat="43.49295" lon="6.7992">
        <ele>386.11</ele>
        <time>2011-01-23T11:10:43Z</time>
      </trkpt>
      <trkpt lat="43.49285" lon="6.7991">
        <ele>387.07</ele>
        <time>2011-01-23T11:10:55Z</time>
      </trkpt>
      <trkpt lat="43.49279" lon="6.79907">
        <ele>388.03</ele>
        <time>2011-01-23T11:10:59Z</time>
      </trkpt>
      <trkpt lat="43.49274" lon="6.79901">
        <ele>388.51</ele>
        <time>2011-01-23T11:11:06Z</time>
      </trkpt>
      <trkpt lat="43.4927" lon="6.79893">
        <ele>388.99</ele>
        <time>2011-01-23T11:11:12Z</time>
      </trkpt>
      <trkpt lat="43.49262" lon="6.79876">
        <ele>390.43</ele>
        <time>2011-01-23T11:11:28Z</time>
      </trkpt>
      <trkpt lat="43.49261" lon="6.79875">
        <ele>390.43</ele>
        <time>2011-01-23T11:11:51Z</time>
      </trkpt>
      <trkpt lat="43.49261" lon="6.79875">
        <ele>389.95</ele>
        <time>2011-01-23T11:12:23Z</time>
      </trkpt>
      <trkpt lat="43.49254" lon="6.79862">
        <ele>391.39</ele>
        <time>2011-01-23T11:12:37Z</time>
      </trkpt>
      <trkpt lat="43.49251" lon="6.79857">
        <ele>391.39</ele>
        <time>2011-01-23T11:12:42Z</time>
      </trkpt>
      <trkpt lat="43.4924" lon="6.79837">
        <ele>392.84</ele>
        <time>2011-01-23T11:13:00Z</time>
      </trkpt>
      <trkpt lat="43.49237" lon="6.79827">
        <ele>393.32</ele>
        <time>2011-01-23T11:13:07Z</time>
      </trkpt>
      <trkpt lat="43.49229" lon="6.79808">
        <ele>394.76</ele>
        <time>2011-01-23T11:13:21Z</time>
      </trkpt>
      <trkpt lat="43.49226" lon="6.79799">
        <ele>394.76</ele>
        <time>2011-01-23T11:13:27Z</time>
      </trkpt>
      <trkpt lat="43.49223" lon="6.79793">
        <ele>395.24</ele>
        <time>2011-01-23T11:13:32Z</time>
      </trkpt>
      <trkpt lat="43.49212" lon="6.79773">
        <ele>397.16</ele>
        <time>2011-01-23T11:13:50Z</time>
      </trkpt>
      <trkpt lat="43.492" lon="6.79753">
        <ele>398.6</ele>
        <time>2011-01-23T11:14:06Z</time>
      </trkpt>
      <trkpt lat="43.49191" lon="6.79738">
        <ele>399.08</ele>
        <time>2011-01-23T11:14:20Z</time>
      </trkpt>
      <trkpt lat="43.49179" lon="6.79724">
        <ele>400.05</ele>
        <time>2011-01-23T11:14:35Z</time>
      </trkpt>
      <trkpt lat="43.49169" lon="6.79708">
        <ele>401.97</ele>
        <time>2011-01-23T11:14:51Z</time>
      </trkpt>
      <trkpt lat="43.49161" lon="6.79691">
        <ele>402.93</ele>
        <time>2011-01-23T11:15:07Z</time>
      </trkpt>
      <trkpt lat="43.49157" lon="6.79675">
        <ele>404.85</ele>
        <time>2011-01-23T11:15:21Z</time>
      </trkpt>
      <trkpt lat="43.49157" lon="6.7967">
        <ele>404.85</ele>
        <time>2011-01-23T11:15:25Z</time>
      </trkpt>
      <trkpt lat="43.49156" lon="6.79647">
        <ele>405.81</ele>
        <time>2011-01-23T11:15:42Z</time>
      </trkpt>
      <trkpt lat="43.49151" lon="6.79626">
        <ele>407.26</ele>
        <time>2011-01-23T11:15:57Z</time>
      </trkpt>
      <trkpt lat="43.49147" lon="6.79606">
        <ele>408.22</ele>
        <time>2011-01-23T11:16:13Z</time>
      </trkpt>
      <trkpt lat="43.49144" lon="6.79589">
        <ele>409.18</ele>
        <time>2011-01-23T11:16:26Z</time>
      </trkpt>
      <trkpt lat="43.49143" lon="6.7957">
        <ele>411.58</ele>
        <time>2011-01-23T11:16:40Z</time>
      </trkpt>
      <trkpt lat="43.49141" lon="6.79553">
        <ele>412.54</ele>
        <time>2011-01-23T11:16:56Z</time>
      </trkpt>
      <trkpt lat="43.49142" lon="6.79537">
        <ele>413.98</ele>
        <time>2011-01-23T11:17:10Z</time>
      </trkpt>
      <trkpt lat="43.49143" lon="6.79534">
        <ele>414.47</ele>
        <time>2011-01-23T11:17:13Z</time>
      </trkpt>
      <trkpt lat="43.49143" lon="6.79524">
        <ele>415.43</ele>
        <time>2011-01-23T11:17:21Z</time>
      </trkpt>
      <trkpt lat="43.4914" lon="6.795">
        <ele>416.39</ele>
        <time>2011-01-23T11:17:40Z</time>
      </trkpt>
      <trkpt lat="43.49138" lon="6.79484">
        <ele>417.35</ele>
        <time>2011-01-23T11:17:53Z</time>
      </trkpt>
      <trkpt lat="43.49138" lon="6.79481">
        <ele>417.83</ele>
        <time>2011-01-23T11:17:55Z</time>
      </trkpt>
      <trkpt lat="43.49138" lon="6.79476">
        <ele>417.83</ele>
        <time>2011-01-23T11:17:59Z</time>
      </trkpt>
      <trkpt lat="43.49137" lon="6.79471">
        <ele>418.31</ele>
        <time>2011-01-23T11:18:03Z</time>
      </trkpt>
      <trkpt lat="43.49134" lon="6.79452">
        <ele>420.23</ele>
        <time>2011-01-23T11:18:19Z</time>
      </trkpt>
      <trkpt lat="43.49127" lon="6.79435">
        <ele>421.19</ele>
        <time>2011-01-23T11:18:35Z</time>
      </trkpt>
      <trkpt lat="43.49116" lon="6.79415">
        <ele>422.64</ele>
        <time>2011-01-23T11:18:53Z</time>
      </trkpt>
      <trkpt lat="43.49103" lon="6.79402">
        <ele>423.6</ele>
        <time>2011-01-23T11:19:08Z</time>
      </trkpt>
      <trkpt lat="43.49096" lon="6.79398">
        <ele>423.6</ele>
        <time>2011-01-23T11:19:15Z</time>
      </trkpt>
      <trkpt lat="43.49084" lon="6.79391">
        <ele>424.08</ele>
        <time>2011-01-23T11:19:26Z</time>
      </trkpt>
      <trkpt lat="43.49067" lon="6.79388">
        <ele>423.6</ele>
        <time>2011-01-23T11:19:40Z</time>
      </trkpt>
      <trkpt lat="43.49047" lon="6.79386">
        <ele>422.64</ele>
        <time>2011-01-23T11:19:57Z</time>
      </trkpt>
      <trkpt lat="43.49036" lon="6.79381">
        <ele>421.19</ele>
        <time>2011-01-23T11:20:11Z</time>
      </trkpt>
      <trkpt lat="43.49033" lon="6.7937">
        <ele>421.68</ele>
        <time>2011-01-23T11:20:23Z</time>
      </trkpt>
      <trkpt lat="43.49032" lon="6.79369">
        <ele>421.68</ele>
        <time>2011-01-23T11:20:24Z</time>
      </trkpt>
      <trkpt lat="43.49028" lon="6.79349">
        <ele>422.64</ele>
        <time>2011-01-23T11:20:39Z</time>
      </trkpt>
      <trkpt lat="43.49025" lon="6.79339">
        <ele>424.08</ele>
        <time>2011-01-23T11:20:50Z</time>
      </trkpt>
      <trkpt lat="43.49019" lon="6.7932">
        <ele>425.52</ele>
        <time>2011-01-23T11:21:05Z</time>
      </trkpt>
      <trkpt lat="43.49016" lon="6.79303">
        <ele>426.96</ele>
        <time>2011-01-23T11:21:20Z</time>
      </trkpt>
      <trkpt lat="43.49012" lon="6.79283">
        <ele>428.4</ele>
        <time>2011-01-23T11:21:37Z</time>
      </trkpt>
      <trkpt lat="43.49012" lon="6.79268">
        <ele>429.85</ele>
        <time>2011-01-23T11:21:50Z</time>
      </trkpt>
      <trkpt lat="43.49013" lon="6.79256">
        <ele>430.81</ele>
        <time>2011-01-23T11:22:00Z</time>
      </trkpt>
      <trkpt lat="43.49014" lon="6.79254">
        <ele>430.81</ele>
        <time>2011-01-23T11:22:02Z</time>
      </trkpt>
      <trkpt lat="43.49019" lon="6.79232">
        <ele>432.73</ele>
        <time>2011-01-23T11:22:19Z</time>
      </trkpt>
      <trkpt lat="43.49028" lon="6.79217">
        <ele>433.69</ele>
        <time>2011-01-23T11:22:34Z</time>
      </trkpt>
      <trkpt lat="43.49038" lon="6.79204">
        <ele>435.13</ele>
        <time>2011-01-23T11:22:49Z</time>
      </trkpt>
      <trkpt lat="43.4904" lon="6.79203">
        <ele>435.13</ele>
        <time>2011-01-23T11:22:51Z</time>
      </trkpt>
      <trkpt lat="43.49052" lon="6.79193">
        <ele>436.58</ele>
        <time>2011-01-23T11:23:05Z</time>
      </trkpt>
      <trkpt lat="43.49054" lon="6.79191">
        <ele>436.58</ele>
        <time>2011-01-23T11:23:07Z</time>
      </trkpt>
      <trkpt lat="43.49057" lon="6.7919">
        <ele>437.54</ele>
        <time>2011-01-23T11:23:11Z</time>
      </trkpt>
      <trkpt lat="43.49072" lon="6.79183">
        <ele>438.98</ele>
        <time>2011-01-23T11:23:28Z</time>
      </trkpt>
      <trkpt lat="43.49083" lon="6.79181">
        <ele>440.42</ele>
        <time>2011-01-23T11:23:43Z</time>
      </trkpt>
      <trkpt lat="43.49091" lon="6.7918">
        <ele>440.9</ele>
        <time>2011-01-23T11:23:56Z</time>
      </trkpt>
      <trkpt lat="43.49095" lon="6.79181">
        <ele>440.9</ele>
        <time>2011-01-23T11:24:06Z</time>
      </trkpt>
      <trkpt lat="43.491" lon="6.79182">
        <ele>441.86</ele>
        <time>2011-01-23T11:24:11Z</time>
      </trkpt>
      <trkpt lat="43.49115" lon="6.79186">
        <ele>442.34</ele>
        <time>2011-01-23T11:24:27Z</time>
      </trkpt>
      <trkpt lat="43.49121" lon="6.79189">
        <ele>443.31</ele>
        <time>2011-01-23T11:24:34Z</time>
      </trkpt>
      <trkpt lat="43.49133" lon="6.79198">
        <ele>445.71</ele>
        <time>2011-01-23T11:24:49Z</time>
      </trkpt>
      <trkpt lat="43.49139" lon="6.79208">
        <ele>446.19</ele>
        <time>2011-01-23T11:25:02Z</time>
      </trkpt>
      <trkpt lat="43.49144" lon="6.79221">
        <ele>447.15</ele>
        <time>2011-01-23T11:25:15Z</time>
      </trkpt>
      <trkpt lat="43.49149" lon="6.79235">
        <ele>448.59</ele>
        <time>2011-01-23T11:25:30Z</time>
      </trkpt>
      <trkpt lat="43.4915" lon="6.79242">
        <ele>449.07</ele>
        <time>2011-01-23T11:25:37Z</time>
      </trkpt>
      <trkpt lat="43.49151" lon="6.7926">
        <ele>449.55</ele>
        <time>2011-01-23T11:25:52Z</time>
      </trkpt>
      <trkpt lat="43.49152" lon="6.79276">
        <ele>451</ele>
        <time>2011-01-23T11:26:06Z</time>
      </trkpt>
      <trkpt lat="43.49152" lon="6.79294">
        <ele>451.96</ele>
        <time>2011-01-23T11:26:21Z</time>
      </trkpt>
      <trkpt lat="43.49151" lon="6.79311">
        <ele>451.96</ele>
        <time>2011-01-23T11:26:34Z</time>
      </trkpt>
      <trkpt lat="43.49144" lon="6.79307">
        <ele>452.44</ele>
        <time>2011-01-23T11:26:43Z</time>
      </trkpt>
      <trkpt lat="43.49133" lon="6.79286">
        <ele>452.92</ele>
        <time>2011-01-23T11:27:02Z</time>
      </trkpt>
      <trkpt lat="43.49123" lon="6.7927">
        <ele>452.92</ele>
        <time>2011-01-23T11:27:17Z</time>
      </trkpt>
      <trkpt lat="43.49123" lon="6.79267">
        <ele>453.4</ele>
        <time>2011-01-23T11:27:19Z</time>
      </trkpt>
      <trkpt lat="43.49117" lon="6.79249">
        <ele>453.88</ele>
        <time>2011-01-23T11:27:35Z</time>
      </trkpt>
      <trkpt lat="43.49118" lon="6.7924">
        <ele>454.84</ele>
        <time>2011-01-23T11:27:47Z</time>
      </trkpt>
      <trkpt lat="43.49118" lon="6.79233">
        <ele>454.84</ele>
        <time>2011-01-23T11:27:59Z</time>
      </trkpt>
      <trkpt lat="43.49117" lon="6.79231">
        <ele>453.88</ele>
        <time>2011-01-23T11:28:22Z</time>
      </trkpt>
      <trkpt lat="43.49115" lon="6.79231">
        <ele>453.88</ele>
        <time>2011-01-23T11:28:45Z</time>
      </trkpt>
      <trkpt lat="43.49115" lon="6.79231">
        <ele>453.88</ele>
        <time>2011-01-23T11:29:05Z</time>
      </trkpt>
      <trkpt lat="43.49115" lon="6.79231">
        <ele>453.88</ele>
        <time>2011-01-23T11:29:29Z</time>
      </trkpt>
      <trkpt lat="43.49115" lon="6.79231">
        <ele>453.4</ele>
        <time>2011-01-23T11:29:57Z</time>
      </trkpt>
      <trkpt lat="43.49115" lon="6.79231">
        <ele>453.88</ele>
        <time>2011-01-23T11:30:32Z</time>
      </trkpt>
      <trkpt lat="43.49115" lon="6.79231">
        <ele>453.4</ele>
        <time>2011-01-23T11:31:03Z</time>
      </trkpt>
      <trkpt lat="43.49114" lon="6.79231">
        <ele>453.4</ele>
        <time>2011-01-23T11:31:34Z</time>
      </trkpt>
      <trkpt lat="43.49114" lon="6.7923">
        <ele>453.4</ele>
        <time>2011-01-23T11:31:59Z</time>
      </trkpt>
      <trkpt lat="43.49114" lon="6.7923">
        <ele>452.92</ele>
        <time>2011-01-23T11:32:25Z</time>
      </trkpt>
      <trkpt lat="43.49114" lon="6.79231">
        <ele>452.92</ele>
        <time>2011-01-23T11:32:57Z</time>
      </trkpt>
      <trkpt lat="43.49114" lon="6.79231">
        <ele>452.92</ele>
        <time>2011-01-23T11:33:30Z</time>
      </trkpt>
      <trkpt lat="43.49114" lon="6.79231">
        <ele>452.92</ele>
        <time>2011-01-23T11:34:05Z</time>
      </trkpt>
      <trkpt lat="43.49114" lon="6.79231">
        <ele>452.44</ele>
        <time>2011-01-23T11:34:38Z</time>
      </trkpt>
      <trkpt lat="43.49114" lon="6.79231">
        <ele>452.92</ele>
        <time>2011-01-23T11:35:08Z</time>
      </trkpt>
      <trkpt lat="43.49114" lon="6.79231">
        <ele>452.44</ele>
        <time>2011-01-23T11:35:39Z</time>
      </trkpt>
      <trkpt lat="43.49114" lon="6.79231">
        <ele>452.44</ele>
        <time>2011-01-23T11:36:08Z</time>
      </trkpt>
      <trkpt lat="43.49114" lon="6.79231">
        <ele>452.44</ele>
        <time>2011-01-23T11:36:37Z</time>
      </trkpt>
      <trkpt lat="43.49114" lon="6.79231">
        <ele>452.44</ele>
        <time>2011-01-23T11:37:12Z</time>
      </trkpt>
      <trkpt lat="43.49114" lon="6.79231">
        <ele>449.55</ele>
        <time>2011-01-23T11:37:26Z</time>
      </trkpt>
      <trkpt lat="43.49114" lon="6.79231">
        <ele>450.03</ele>
        <time>2011-01-23T11:37:27Z</time>
      </trkpt>
      <trkpt lat="43.49114" lon="6.79231">
        <ele>452.92</ele>
        <time>2011-01-23T11:37:28Z</time>
      </trkpt>
      <trkpt lat="43.49114" lon="6.79231">
        <ele>452.92</ele>
        <time>2011-01-23T11:37:29Z</time>
      </trkpt>
      <trkpt lat="43.49114" lon="6.79231">
        <ele>452.44</ele>
        <time>2011-01-23T11:37:47Z</time>
      </trkpt>
      <trkpt lat="43.49114" lon="6.79231">
        <ele>451.96</ele>
        <time>2011-01-23T11:38:10Z</time>
      </trkpt>
      <trkpt lat="43.49114" lon="6.79231">
        <ele>455.8</ele>
        <time>2011-01-23T11:38:29Z</time>
      </trkpt>
      <trkpt lat="43.49114" lon="6.79231">
        <ele>452.44</ele>
        <time>2011-01-23T11:38:30Z</time>
      </trkpt>
      <trkpt lat="43.49114" lon="6.79231">
        <ele>451.96</ele>
        <time>2011-01-23T11:38:57Z</time>
      </trkpt>
      <trkpt lat="43.49114" lon="6.79231">
        <ele>451.96</ele>
        <time>2011-01-23T11:39:37Z</time>
      </trkpt>
      <trkpt lat="43.49114" lon="6.79231">
        <ele>452.44</ele>
        <time>2011-01-23T11:40:09Z</time>
      </trkpt>
      <trkpt lat="43.49114" lon="6.79231">
        <ele>452.44</ele>
        <time>2011-01-23T11:40:40Z</time>
      </trkpt>
      <trkpt lat="43.49114" lon="6.79231">
        <ele>452.44</ele>
        <time>2011-01-23T11:41:05Z</time>
      </trkpt>
      <trkpt lat="43.49114" lon="6.7923">
        <ele>452.92</ele>
        <time>2011-01-23T11:41:39Z</time>
      </trkpt>
      <trkpt lat="43.49114" lon="6.7923">
        <ele>452.92</ele>
        <time>2011-01-23T11:42:17Z</time>
      </trkpt>
      <trkpt lat="43.49115" lon="6.79229">
        <ele>452.92</ele>
        <time>2011-01-23T11:43:00Z</time>
      </trkpt>
      <trkpt lat="43.49114" lon="6.79229">
        <ele>452.44</ele>
        <time>2011-01-23T11:43:40Z</time>
      </trkpt>
      <trkpt lat="43.49114" lon="6.79229">
        <ele>452.92</ele>
        <time>2011-01-23T11:44:21Z</time>
      </trkpt>
      <trkpt lat="43.49114" lon="6.7923">
        <ele>452.44</ele>
        <time>2011-01-23T11:45:01Z</time>
      </trkpt>
      <trkpt lat="43.49114" lon="6.79229">
        <ele>452.44</ele>
        <time>2011-01-23T11:45:38Z</time>
      </trkpt>
      <trkpt lat="43.49115" lon="6.79229">
        <ele>452.44</ele>
        <time>2011-01-23T11:46:13Z</time>
      </trkpt>
      <trkpt lat="43.49114" lon="6.7923">
        <ele>452.44</ele>
        <time>2011-01-23T11:46:52Z</time>
      </trkpt>
      <trkpt lat="43.49114" lon="6.7923">
        <ele>451.96</ele>
        <time>2011-01-23T11:47:36Z</time>
      </trkpt>
      <trkpt lat="43.49114" lon="6.7923">
        <ele>452.44</ele>
        <time>2011-01-23T11:48:14Z</time>
      </trkpt>
      <trkpt lat="43.49114" lon="6.7923">
        <ele>452.44</ele>
        <time>2011-01-23T11:48:54Z</time>
      </trkpt>
      <trkpt lat="43.49114" lon="6.7923">
        <ele>452.44</ele>
        <time>2011-01-23T11:49:30Z</time>
      </trkpt>
      <trkpt lat="43.49115" lon="6.7923">
        <ele>452.44</ele>
        <time>2011-01-23T11:50:15Z</time>
      </trkpt>
      <trkpt lat="43.49115" lon="6.7923">
        <ele>452.44</ele>
        <time>2011-01-23T11:50:53Z</time>
      </trkpt>
      <trkpt lat="43.49115" lon="6.7923">
        <ele>452.44</ele>
        <time>2011-01-23T11:51:37Z</time>
      </trkpt>
      <trkpt lat="43.49115" lon="6.7923">
        <ele>451.96</ele>
        <time>2011-01-23T11:52:19Z</time>
      </trkpt>
      <trkpt lat="43.49114" lon="6.7923">
        <ele>451.96</ele>
        <time>2011-01-23T11:52:59Z</time>
      </trkpt>
      <trkpt lat="43.49115" lon="6.7923">
        <ele>451.96</ele>
        <time>2011-01-23T11:53:38Z</time>
      </trkpt>
      <trkpt lat="43.49115" lon="6.7923">
        <ele>451.96</ele>
        <time>2011-01-23T11:54:18Z</time>
      </trkpt>
      <trkpt lat="43.49115" lon="6.7923">
        <ele>451.96</ele>
        <time>2011-01-23T11:54:59Z</time>
      </trkpt>
      <trkpt lat="43.49115" lon="6.7923">
        <ele>451.96</ele>
        <time>2011-01-23T11:55:41Z</time>
      </trkpt>
      <trkpt lat="43.49115" lon="6.7923">
        <ele>451.96</ele>
        <time>2011-01-23T11:56:16Z</time>
      </trkpt>
      <trkpt lat="43.49115" lon="6.7923">
        <ele>451.48</ele>
        <time>2011-01-23T11:56:59Z</time>
      </trkpt>
      <trkpt lat="43.49115" lon="6.7923">
        <ele>451.96</ele>
        <time>2011-01-23T11:57:37Z</time>
      </trkpt>
      <trkpt lat="43.49114" lon="6.7923">
        <ele>451.48</ele>
        <time>2011-01-23T11:58:14Z</time>
      </trkpt>
      <trkpt lat="43.49114" lon="6.7923">
        <ele>451.48</ele>
        <time>2011-01-23T11:58:52Z</time>
      </trkpt>
      <trkpt lat="43.49114" lon="6.7923">
        <ele>451.96</ele>
        <time>2011-01-23T11:59:24Z</time>
      </trkpt>
      <trkpt lat="43.49114" lon="6.7923">
        <ele>451.96</ele>
        <time>2011-01-23T12:00:04Z</time>
      </trkpt>
      <trkpt lat="43.49114" lon="6.7923">
        <ele>453.4</ele>
        <time>2011-01-23T12:00:06Z</time>
      </trkpt>
      <trkpt lat="43.49114" lon="6.7923">
        <ele>451.48</ele>
        <time>2011-01-23T12:00:08Z</time>
      </trkpt>
      <trkpt lat="43.49114" lon="6.7923">
        <ele>451</ele>
        <time>2011-01-23T12:00:41Z</time>
      </trkpt>
      <trkpt lat="43.49114" lon="6.7923">
        <ele>451.48</ele>
        <time>2011-01-23T12:01:18Z</time>
      </trkpt>
      <trkpt lat="43.49114" lon="6.7923">
        <ele>451</ele>
        <time>2011-01-23T12:01:54Z</time>
      </trkpt>
      <trkpt lat="43.49114" lon="6.7923">
        <ele>451.48</ele>
        <time>2011-01-23T12:02:27Z</time>
      </trkpt>
      <trkpt lat="43.49114" lon="6.7923">
        <ele>451</ele>
        <time>2011-01-23T12:03:00Z</time>
      </trkpt>
      <trkpt lat="43.49114" lon="6.7923">
        <ele>451.48</ele>
        <time>2011-01-23T12:03:29Z</time>
      </trkpt>
      <trkpt lat="43.49114" lon="6.7923">
        <ele>451.48</ele>
        <time>2011-01-23T12:04:02Z</time>
      </trkpt>
      <trkpt lat="43.49114" lon="6.7923">
        <ele>451.48</ele>
        <time>2011-01-23T12:04:38Z</time>
      </trkpt>
      <trkpt lat="43.49114" lon="6.7923">
        <ele>451.48</ele>
        <time>2011-01-23T12:05:12Z</time>
      </trkpt>
      <trkpt lat="43.49114" lon="6.7923">
        <ele>451.48</ele>
        <time>2011-01-23T12:05:48Z</time>
      </trkpt>
      <trkpt lat="43.49114" lon="6.7923">
        <ele>451</ele>
        <time>2011-01-23T12:06:18Z</time>
      </trkpt>
      <trkpt lat="43.49114" lon="6.7923">
        <ele>451.48</ele>
        <time>2011-01-23T12:06:54Z</time>
      </trkpt>
      <trkpt lat="43.49114" lon="6.7923">
        <ele>445.71</ele>
        <time>2011-01-23T12:07:14Z</time>
      </trkpt>
      <trkpt lat="43.49114" lon="6.7923">
        <ele>452.92</ele>
        <time>2011-01-23T12:07:15Z</time>
      </trkpt>
      <trkpt lat="43.49114" lon="6.7923">
        <ele>448.59</ele>
        <time>2011-01-23T12:07:21Z</time>
      </trkpt>
      <trkpt lat="43.49114" lon="6.7923">
        <ele>453.4</ele>
        <time>2011-01-23T12:07:25Z</time>
      </trkpt>
      <trkpt lat="43.49114" lon="6.7923">
        <ele>448.11</ele>
        <time>2011-01-23T12:07:28Z</time>
      </trkpt>
      <trkpt lat="43.49114" lon="6.7923">
        <ele>452.44</ele>
        <time>2011-01-23T12:07:29Z</time>
      </trkpt>
      <trkpt lat="43.49114" lon="6.7923">
        <ele>451.96</ele>
        <time>2011-01-23T12:07:54Z</time>
      </trkpt>
      <trkpt lat="43.49114" lon="6.7923">
        <ele>451.96</ele>
        <time>2011-01-23T12:08:29Z</time>
      </trkpt>
      <trkpt lat="43.49114" lon="6.7923">
        <ele>447.63</ele>
        <time>2011-01-23T12:08:32Z</time>
      </trkpt>
      <trkpt lat="43.49114" lon="6.7923">
        <ele>452.44</ele>
        <time>2011-01-23T12:08:33Z</time>
      </trkpt>
      <trkpt lat="43.49114" lon="6.7923">
        <ele>451.48</ele>
        <time>2011-01-23T12:09:04Z</time>
      </trkpt>
      <trkpt lat="43.49114" lon="6.7923">
        <ele>452.44</ele>
        <time>2011-01-23T12:09:39Z</time>
      </trkpt>
      <trkpt lat="43.49114" lon="6.7923">
        <ele>451.96</ele>
        <time>2011-01-23T12:10:11Z</time>
      </trkpt>
      <trkpt lat="43.49114" lon="6.7923">
        <ele>468.3</ele>
        <time>2011-01-23T12:10:34Z</time>
      </trkpt>
      <trkpt lat="43.49114" lon="6.7923">
        <ele>452.92</ele>
        <time>2011-01-23T12:10:35Z</time>
      </trkpt>
      <trkpt lat="43.49114" lon="6.7923">
        <ele>441.86</ele>
        <time>2011-01-23T12:10:45Z</time>
      </trkpt>
      <trkpt lat="43.49114" lon="6.7923">
        <ele>449.07</ele>
        <time>2011-01-23T12:10:46Z</time>
      </trkpt>
      <trkpt lat="43.49114" lon="6.7923">
        <ele>451.48</ele>
        <time>2011-01-23T12:10:48Z</time>
      </trkpt>
      <trkpt lat="43.49114" lon="6.7923">
        <ele>452.44</ele>
        <time>2011-01-23T12:11:09Z</time>
      </trkpt>
      <trkpt lat="43.49114" lon="6.7923">
        <ele>451.96</ele>
        <time>2011-01-23T12:11:50Z</time>
      </trkpt>
      <trkpt lat="43.49114" lon="6.7923">
        <ele>451.96</ele>
        <time>2011-01-23T12:12:18Z</time>
      </trkpt>
      <trkpt lat="43.49114" lon="6.7923">
        <ele>451.96</ele>
        <time>2011-01-23T12:12:59Z</time>
      </trkpt>
      <trkpt lat="43.49114" lon="6.79231">
        <ele>451.48</ele>
        <time>2011-01-23T12:13:37Z</time>
      </trkpt>
      <trkpt lat="43.49114" lon="6.79231">
        <ele>451.96</ele>
        <time>2011-01-23T12:14:10Z</time>
      </trkpt>
      <trkpt lat="43.49114" lon="6.79231">
        <ele>451.96</ele>
        <time>2011-01-23T12:14:42Z</time>
      </trkpt>
      <trkpt lat="43.49114" lon="6.79231">
        <ele>451.96</ele>
        <time>2011-01-23T12:15:10Z</time>
      </trkpt>
      <trkpt lat="43.49114" lon="6.79231">
        <ele>451.48</ele>
        <time>2011-01-23T12:15:42Z</time>
      </trkpt>
      <trkpt lat="43.49114" lon="6.79231">
        <ele>451.48</ele>
        <time>2011-01-23T12:16:08Z</time>
      </trkpt>
      <trkpt lat="43.49113" lon="6.7923">
        <ele>451.48</ele>
        <time>2011-01-23T12:16:40Z</time>
      </trkpt>
      <trkpt lat="43.49113" lon="6.7923">
        <ele>451.48</ele>
        <time>2011-01-23T12:17:11Z</time>
      </trkpt>
      <trkpt lat="43.49114" lon="6.7923">
        <ele>451</ele>
        <time>2011-01-23T12:17:44Z</time>
      </trkpt>
      <trkpt lat="43.49114" lon="6.7923">
        <ele>451.48</ele>
        <time>2011-01-23T12:18:16Z</time>
      </trkpt>
      <trkpt lat="43.49114" lon="6.7923">
        <ele>451.96</ele>
        <time>2011-01-23T12:18:51Z</time>
      </trkpt>
      <trkpt lat="43.49114" lon="6.7923">
        <ele>451</ele>
        <time>2011-01-23T12:19:20Z</time>
      </trkpt>
      <trkpt lat="43.49114" lon="6.7923">
        <ele>451.48</ele>
        <time>2011-01-23T12:19:54Z</time>
      </trkpt>
      <trkpt lat="43.49114" lon="6.7923">
        <ele>451.48</ele>
        <time>2011-01-23T12:20:25Z</time>
      </trkpt>
      <trkpt lat="43.49114" lon="6.7923">
        <ele>451.96</ele>
        <time>2011-01-23T12:21:02Z</time>
      </trkpt>
      <trkpt lat="43.49114" lon="6.7923">
        <ele>451.96</ele>
        <time>2011-01-23T12:21:38Z</time>
      </trkpt>
      <trkpt lat="43.49114" lon="6.7923">
        <ele>451.48</ele>
        <time>2011-01-23T12:22:11Z</time>
      </trkpt>
      <trkpt lat="43.49114" lon="6.7923">
        <ele>451.48</ele>
        <time>2011-01-23T12:22:45Z</time>
      </trkpt>
      <trkpt lat="43.49114" lon="6.7923">
        <ele>451.48</ele>
        <time>2011-01-23T12:23:16Z</time>
      </trkpt>
      <trkpt lat="43.49114" lon="6.7923">
        <ele>451.48</ele>
        <time>2011-01-23T12:23:50Z</time>
      </trkpt>
      <trkpt lat="43.49114" lon="6.79229">
        <ele>451.48</ele>
        <time>2011-01-23T12:24:29Z</time>
      </trkpt>
      <trkpt lat="43.49114" lon="6.79229">
        <ele>451</ele>
        <time>2011-01-23T12:25:05Z</time>
      </trkpt>
      <trkpt lat="43.49114" lon="6.79229">
        <ele>451.48</ele>
        <time>2011-01-23T12:25:40Z</time>
      </trkpt>
      <trkpt lat="43.49114" lon="6.79229">
        <ele>451</ele>
        <time>2011-01-23T12:26:09Z</time>
      </trkpt>
      <trkpt lat="43.49114" lon="6.79229">
        <ele>451</ele>
        <time>2011-01-23T12:26:37Z</time>
      </trkpt>
      <trkpt lat="43.49114" lon="6.79229">
        <ele>450.52</ele>
        <time>2011-01-23T12:27:05Z</time>
      </trkpt>
      <trkpt lat="43.49114" lon="6.79229">
        <ele>450.52</ele>
        <time>2011-01-23T12:27:37Z</time>
      </trkpt>
      <trkpt lat="43.49114" lon="6.79229">
        <ele>450.52</ele>
        <time>2011-01-23T12:28:05Z</time>
      </trkpt>
      <trkpt lat="43.49114" lon="6.79229">
        <ele>451</ele>
        <time>2011-01-23T12:28:32Z</time>
      </trkpt>
      <trkpt lat="43.49114" lon="6.79229">
        <ele>450.52</ele>
        <time>2011-01-23T12:29:02Z</time>
      </trkpt>
      <trkpt lat="43.49114" lon="6.79229">
        <ele>451</ele>
        <time>2011-01-23T12:29:33Z</time>
      </trkpt>
      <trkpt lat="43.49114" lon="6.79229">
        <ele>451</ele>
        <time>2011-01-23T12:30:09Z</time>
      </trkpt>
      <trkpt lat="43.49114" lon="6.79229">
        <ele>451</ele>
        <time>2011-01-23T12:30:44Z</time>
      </trkpt>
      <trkpt lat="43.49115" lon="6.79229">
        <ele>450.52</ele>
        <time>2011-01-23T12:31:11Z</time>
      </trkpt>
      <trkpt lat="43.49114" lon="6.79229">
        <ele>450.52</ele>
        <time>2011-01-23T12:31:45Z</time>
      </trkpt>
      <trkpt lat="43.49115" lon="6.79228">
        <ele>451.48</ele>
        <time>2011-01-23T12:32:05Z</time>
      </trkpt>
      <trkpt lat="43.49115" lon="6.79228">
        <ele>451.48</ele>
        <time>2011-01-23T12:32:24Z</time>
      </trkpt>
      <trkpt lat="43.49118" lon="6.79233">
        <ele>451.96</ele>
        <time>2011-01-23T12:32:42Z</time>
      </trkpt>
      <trkpt lat="43.49119" lon="6.79243">
        <ele>451</ele>
        <time>2011-01-23T12:32:58Z</time>
      </trkpt>
      <trkpt lat="43.49117" lon="6.79254">
        <ele>450.03</ele>
        <time>2011-01-23T12:33:12Z</time>
      </trkpt>
      <trkpt lat="43.49118" lon="6.7926">
        <ele>450.03</ele>
        <time>2011-01-23T12:33:16Z</time>
      </trkpt>
      <trkpt lat="43.49128" lon="6.79277">
        <ele>450.03</ele>
        <time>2011-01-23T12:33:30Z</time>
      </trkpt>
      <trkpt lat="43.4913" lon="6.79281">
        <ele>449.55</ele>
        <time>2011-01-23T12:33:33Z</time>
      </trkpt>
      <trkpt lat="43.49141" lon="6.79298">
        <ele>449.07</ele>
        <time>2011-01-23T12:33:49Z</time>
      </trkpt>
      <trkpt lat="43.49149" lon="6.79311">
        <ele>449.07</ele>
        <time>2011-01-23T12:34:02Z</time>
      </trkpt>
      <trkpt lat="43.4915" lon="6.79312">
        <ele>448.59</ele>
        <time>2011-01-23T12:34:04Z</time>
      </trkpt>
      <trkpt lat="43.49152" lon="6.79313">
        <ele>448.59</ele>
        <time>2011-01-23T12:34:06Z</time>
      </trkpt>
      <trkpt lat="43.49159" lon="6.79324">
        <ele>448.59</ele>
        <time>2011-01-23T12:34:18Z</time>
      </trkpt>
      <trkpt lat="43.49161" lon="6.7933">
        <ele>448.11</ele>
        <time>2011-01-23T12:34:24Z</time>
      </trkpt>
      <trkpt lat="43.49163" lon="6.79335">
        <ele>448.11</ele>
        <time>2011-01-23T12:34:29Z</time>
      </trkpt>
      <trkpt lat="43.49172" lon="6.79353">
        <ele>448.11</ele>
        <time>2011-01-23T12:34:45Z</time>
      </trkpt>
      <trkpt lat="43.49181" lon="6.79368">
        <ele>448.11</ele>
        <time>2011-01-23T12:34:59Z</time>
      </trkpt>
      <trkpt lat="43.49189" lon="6.79384">
        <ele>447.63</ele>
        <time>2011-01-23T12:35:14Z</time>
      </trkpt>
      <trkpt lat="43.49193" lon="6.79392">
        <ele>447.15</ele>
        <time>2011-01-23T12:35:21Z</time>
      </trkpt>
      <trkpt lat="43.49201" lon="6.79408">
        <ele>447.63</ele>
        <time>2011-01-23T12:35:36Z</time>
      </trkpt>
      <trkpt lat="43.49211" lon="6.79424">
        <ele>448.59</ele>
        <time>2011-01-23T12:35:51Z</time>
      </trkpt>
      <trkpt lat="43.49218" lon="6.79438">
        <ele>449.07</ele>
        <time>2011-01-23T12:36:05Z</time>
      </trkpt>
      <trkpt lat="43.49224" lon="6.79448">
        <ele>449.07</ele>
        <time>2011-01-23T12:36:14Z</time>
      </trkpt>
      <trkpt lat="43.49228" lon="6.79457">
        <ele>450.03</ele>
        <time>2011-01-23T12:36:23Z</time>
      </trkpt>
      <trkpt lat="43.49239" lon="6.79473">
        <ele>450.03</ele>
        <time>2011-01-23T12:36:39Z</time>
      </trkpt>
      <trkpt lat="43.49247" lon="6.79486">
        <ele>450.52</ele>
        <time>2011-01-23T12:36:52Z</time>
      </trkpt>
      <trkpt lat="43.49256" lon="6.79504">
        <ele>449.55</ele>
        <time>2011-01-23T12:37:06Z</time>
      </trkpt>
      <trkpt lat="43.49263" lon="6.79518">
        <ele>449.55</ele>
        <time>2011-01-23T12:37:18Z</time>
      </trkpt>
      <trkpt lat="43.49268" lon="6.79533">
        <ele>448.59</ele>
        <time>2011-01-23T12:37:29Z</time>
      </trkpt>
      <trkpt lat="43.49269" lon="6.79543">
        <ele>447.63</ele>
        <time>2011-01-23T12:37:38Z</time>
      </trkpt>
      <trkpt lat="43.49269" lon="6.79551">
        <ele>446.67</ele>
        <time>2011-01-23T12:37:44Z</time>
      </trkpt>
      <trkpt lat="43.49268" lon="6.79563">
        <ele>444.75</ele>
        <time>2011-01-23T12:37:56Z</time>
      </trkpt>
      <trkpt lat="43.49266" lon="6.79584">
        <ele>442.34</ele>
        <time>2011-01-23T12:38:14Z</time>
      </trkpt>
      <trkpt lat="43.49265" lon="6.79591">
        <ele>441.86</ele>
        <time>2011-01-23T12:38:19Z</time>
      </trkpt>
      <trkpt lat="43.49265" lon="6.79601">
        <ele>440.9</ele>
        <time>2011-01-23T12:38:26Z</time>
      </trkpt>
      <trkpt lat="43.49265" lon="6.79605">
        <ele>440.9</ele>
        <time>2011-01-23T12:38:29Z</time>
      </trkpt>
      <trkpt lat="43.49266" lon="6.7963">
        <ele>438.98</ele>
        <time>2011-01-23T12:38:46Z</time>
      </trkpt>
      <trkpt lat="43.49268" lon="6.79638">
        <ele>438.98</ele>
        <time>2011-01-23T12:38:52Z</time>
      </trkpt>
      <trkpt lat="43.49273" lon="6.79657">
        <ele>438.02</ele>
        <time>2011-01-23T12:39:07Z</time>
      </trkpt>
      <trkpt lat="43.49274" lon="6.79662">
        <ele>437.06</ele>
        <time>2011-01-23T12:39:11Z</time>
      </trkpt>
      <trkpt lat="43.49277" lon="6.7967">
        <ele>436.1</ele>
        <time>2011-01-23T12:39:17Z</time>
      </trkpt>
      <trkpt lat="43.49281" lon="6.79679">
        <ele>435.13</ele>
        <time>2011-01-23T12:39:25Z</time>
      </trkpt>
      <trkpt lat="43.49288" lon="6.79698">
        <ele>433.69</ele>
        <time>2011-01-23T12:39:40Z</time>
      </trkpt>
      <trkpt lat="43.49295" lon="6.79716">
        <ele>432.25</ele>
        <time>2011-01-23T12:39:56Z</time>
      </trkpt>
      <trkpt lat="43.49297" lon="6.79719">
        <ele>432.73</ele>
        <time>2011-01-23T12:40:00Z</time>
      </trkpt>
      <trkpt lat="43.49301" lon="6.79725">
        <ele>431.77</ele>
        <time>2011-01-23T12:40:07Z</time>
      </trkpt>
      <trkpt lat="43.49308" lon="6.79735">
        <ele>431.77</ele>
        <time>2011-01-23T12:40:16Z</time>
      </trkpt>
      <trkpt lat="43.49311" lon="6.79739">
        <ele>431.29</ele>
        <time>2011-01-23T12:40:20Z</time>
      </trkpt>
      <trkpt lat="43.49321" lon="6.7975">
        <ele>430.81</ele>
        <time>2011-01-23T12:40:33Z</time>
      </trkpt>
      <trkpt lat="43.49323" lon="6.79753">
        <ele>430.81</ele>
        <time>2011-01-23T12:40:36Z</time>
      </trkpt>
      <trkpt lat="43.49332" lon="6.79771">
        <ele>429.37</ele>
        <time>2011-01-23T12:40:51Z</time>
      </trkpt>
      <trkpt lat="43.49339" lon="6.79786">
        <ele>428.4</ele>
        <time>2011-01-23T12:41:05Z</time>
      </trkpt>
      <trkpt lat="43.49339" lon="6.79793">
        <ele>427.44</ele>
        <time>2011-01-23T12:41:11Z</time>
      </trkpt>
      <trkpt lat="43.49338" lon="6.79817">
        <ele>425.04</ele>
        <time>2011-01-23T12:41:28Z</time>
      </trkpt>
      <trkpt lat="43.49338" lon="6.79831">
        <ele>423.12</ele>
        <time>2011-01-23T12:41:44Z</time>
      </trkpt>
      <trkpt lat="43.49338" lon="6.79831">
        <ele>421.19</ele>
        <time>2011-01-23T12:42:00Z</time>
      </trkpt>
      <trkpt lat="43.49337" lon="6.79844">
        <ele>419.75</ele>
        <time>2011-01-23T12:42:12Z</time>
      </trkpt>
      <trkpt lat="43.49338" lon="6.79846">
        <ele>417.83</ele>
        <time>2011-01-23T12:42:24Z</time>
      </trkpt>
      <trkpt lat="43.4934" lon="6.79848">
        <ele>416.39</ele>
        <time>2011-01-23T12:42:36Z</time>
      </trkpt>
      <trkpt lat="43.49366" lon="6.7985">
        <ele>413.5</ele>
        <time>2011-01-23T12:42:54Z</time>
      </trkpt>
      <trkpt lat="43.49371" lon="6.79847">
        <ele>412.54</ele>
        <time>2011-01-23T12:43:08Z</time>
      </trkpt>
      <trkpt lat="43.49375" lon="6.79843">
        <ele>411.58</ele>
        <time>2011-01-23T12:43:13Z</time>
      </trkpt>
      <trkpt lat="43.49384" lon="6.79824">
        <ele>409.18</ele>
        <time>2011-01-23T12:43:29Z</time>
      </trkpt>
      <trkpt lat="43.49386" lon="6.79827">
        <ele>408.22</ele>
        <time>2011-01-23T12:43:37Z</time>
      </trkpt>
      <trkpt lat="43.49386" lon="6.79836">
        <ele>407.26</ele>
        <time>2011-01-23T12:43:45Z</time>
      </trkpt>
      <trkpt lat="43.49385" lon="6.79857">
        <ele>404.37</ele>
        <time>2011-01-23T12:44:00Z</time>
      </trkpt>
      <trkpt lat="43.49382" lon="6.79876">
        <ele>401.97</ele>
        <time>2011-01-23T12:44:12Z</time>
      </trkpt>
      <trkpt lat="43.49375" lon="6.79894">
        <ele>399.57</ele>
        <time>2011-01-23T12:44:27Z</time>
      </trkpt>
      <trkpt lat="43.49378" lon="6.799">
        <ele>397.64</ele>
        <time>2011-01-23T12:44:40Z</time>
      </trkpt>
      <trkpt lat="43.49384" lon="6.79897">
        <ele>396.68</ele>
        <time>2011-01-23T12:44:47Z</time>
      </trkpt>
      <trkpt lat="43.49389" lon="6.79893">
        <ele>396.2</ele>
        <time>2011-01-23T12:44:53Z</time>
      </trkpt>
      <trkpt lat="43.49395" lon="6.79886">
        <ele>395.24</ele>
        <time>2011-01-23T12:45:02Z</time>
      </trkpt>
      <trkpt lat="43.49398" lon="6.79884">
        <ele>394.28</ele>
        <time>2011-01-23T12:45:05Z</time>
      </trkpt>
      <trkpt lat="43.49407" lon="6.79873">
        <ele>390.91</ele>
        <time>2011-01-23T12:45:19Z</time>
      </trkpt>
      <trkpt lat="43.49407" lon="6.79876">
        <ele>390.91</ele>
        <time>2011-01-23T12:45:22Z</time>
      </trkpt>
      <trkpt lat="43.49405" lon="6.79888">
        <ele>390.43</ele>
        <time>2011-01-23T12:45:35Z</time>
      </trkpt>
      <trkpt lat="43.49403" lon="6.79899">
        <ele>388.99</ele>
        <time>2011-01-23T12:45:44Z</time>
      </trkpt>
      <trkpt lat="43.49398" lon="6.79916">
        <ele>386.11</ele>
        <time>2011-01-23T12:45:58Z</time>
      </trkpt>
      <trkpt lat="43.49395" lon="6.79933">
        <ele>384.66</ele>
        <time>2011-01-23T12:46:13Z</time>
      </trkpt>
      <trkpt lat="43.49395" lon="6.79936">
        <ele>384.66</ele>
        <time>2011-01-23T12:46:15Z</time>
      </trkpt>
      <trkpt lat="43.49389" lon="6.79957">
        <ele>382.26</ele>
        <time>2011-01-23T12:46:31Z</time>
      </trkpt>
      <trkpt lat="43.49386" lon="6.79968">
        <ele>379.86</ele>
        <time>2011-01-23T12:46:46Z</time>
      </trkpt>
      <trkpt lat="43.49386" lon="6.7997">
        <ele>379.86</ele>
        <time>2011-01-23T12:46:59Z</time>
      </trkpt>
      <trkpt lat="43.49387" lon="6.79976">
        <ele>377.94</ele>
        <time>2011-01-23T12:47:09Z</time>
      </trkpt>
      <trkpt lat="43.49392" lon="6.79998">
        <ele>375.05</ele>
        <time>2011-01-23T12:47:25Z</time>
      </trkpt>
      <trkpt lat="43.49393" lon="6.80006">
        <ele>373.61</ele>
        <time>2011-01-23T12:47:36Z</time>
      </trkpt>
      <trkpt lat="43.49395" lon="6.80008">
        <ele>372.17</ele>
        <time>2011-01-23T12:47:39Z</time>
      </trkpt>
      <trkpt lat="43.49397" lon="6.8001">
        <ele>371.69</ele>
        <time>2011-01-23T12:47:41Z</time>
      </trkpt>
      <trkpt lat="43.494" lon="6.80013">
        <ele>371.21</ele>
        <time>2011-01-23T12:47:44Z</time>
      </trkpt>
      <trkpt lat="43.49406" lon="6.80018">
        <ele>369.28</ele>
        <time>2011-01-23T12:47:50Z</time>
      </trkpt>
      <trkpt lat="43.49419" lon="6.8003">
        <ele>367.84</ele>
        <time>2011-01-23T12:48:04Z</time>
      </trkpt>
      <trkpt lat="43.49427" lon="6.80047">
        <ele>365.92</ele>
        <time>2011-01-23T12:48:20Z</time>
      </trkpt>
      <trkpt lat="43.49432" lon="6.80053">
        <ele>366.4</ele>
        <time>2011-01-23T12:48:33Z</time>
      </trkpt>
      <trkpt lat="43.49436" lon="6.80064">
        <ele>365.92</ele>
        <time>2011-01-23T12:48:45Z</time>
      </trkpt>
      <trkpt lat="43.49435" lon="6.80086">
        <ele>364.96</ele>
        <time>2011-01-23T12:48:59Z</time>
      </trkpt>
      <trkpt lat="43.49431" lon="6.80107">
        <ele>363.52</ele>
        <time>2011-01-23T12:49:13Z</time>
      </trkpt>
      <trkpt lat="43.49428" lon="6.80125">
        <ele>361.59</ele>
        <time>2011-01-23T12:49:26Z</time>
      </trkpt>
      <trkpt lat="43.49427" lon="6.80127">
        <ele>361.11</ele>
        <time>2011-01-23T12:49:27Z</time>
      </trkpt>
      <trkpt lat="43.49425" lon="6.80135">
        <ele>361.11</ele>
        <time>2011-01-23T12:49:32Z</time>
      </trkpt>
      <trkpt lat="43.49423" lon="6.80143">
        <ele>361.11</ele>
        <time>2011-01-23T12:49:37Z</time>
      </trkpt>
      <trkpt lat="43.49428" lon="6.80167">
        <ele>359.19</ele>
        <time>2011-01-23T12:49:53Z</time>
      </trkpt>
      <trkpt lat="43.49437" lon="6.80185">
        <ele>358.71</ele>
        <time>2011-01-23T12:50:07Z</time>
      </trkpt>
      <trkpt lat="43.49448" lon="6.80199">
        <ele>358.23</ele>
        <time>2011-01-23T12:50:20Z</time>
      </trkpt>
      <trkpt lat="43.49453" lon="6.80202">
        <ele>358.23</ele>
        <time>2011-01-23T12:50:25Z</time>
      </trkpt>
      <trkpt lat="43.49468" lon="6.80203">
        <ele>358.71</ele>
        <time>2011-01-23T12:50:39Z</time>
      </trkpt>
      <trkpt lat="43.49482" lon="6.80204">
        <ele>358.71</ele>
        <time>2011-01-23T12:50:51Z</time>
      </trkpt>
      <trkpt lat="43.49487" lon="6.80201">
        <ele>359.67</ele>
        <time>2011-01-23T12:50:55Z</time>
      </trkpt>
      <trkpt lat="43.49503" lon="6.80197">
        <ele>359.67</ele>
        <time>2011-01-23T12:51:10Z</time>
      </trkpt>
      <trkpt lat="43.49509" lon="6.80196">
        <ele>360.15</ele>
        <time>2011-01-23T12:51:16Z</time>
      </trkpt>
      <trkpt lat="43.49513" lon="6.80194">
        <ele>360.63</ele>
        <time>2011-01-23T12:51:20Z</time>
      </trkpt>
      <trkpt lat="43.49516" lon="6.80193">
        <ele>360.15</ele>
        <time>2011-01-23T12:51:22Z</time>
      </trkpt>
      <trkpt lat="43.49521" lon="6.8019">
        <ele>360.63</ele>
        <time>2011-01-23T12:51:27Z</time>
      </trkpt>
      <trkpt lat="43.49523" lon="6.80189">
        <ele>360.63</ele>
        <time>2011-01-23T12:51:29Z</time>
      </trkpt>
      <trkpt lat="43.49538" lon="6.80182">
        <ele>361.59</ele>
        <time>2011-01-23T12:51:44Z</time>
      </trkpt>
      <trkpt lat="43.49551" lon="6.80175">
        <ele>361.59</ele>
        <time>2011-01-23T12:51:59Z</time>
      </trkpt>
      <trkpt lat="43.49563" lon="6.8017">
        <ele>362.07</ele>
        <time>2011-01-23T12:52:11Z</time>
      </trkpt>
      <trkpt lat="43.49579" lon="6.80167">
        <ele>362.55</ele>
        <time>2011-01-23T12:52:26Z</time>
      </trkpt>
      <trkpt lat="43.49596" lon="6.80163">
        <ele>361.59</ele>
        <time>2011-01-23T12:52:42Z</time>
      </trkpt>
      <trkpt lat="43.49598" lon="6.80162">
        <ele>362.07</ele>
        <time>2011-01-23T12:52:45Z</time>
      </trkpt>
      <trkpt lat="43.49612" lon="6.80161">
        <ele>361.11</ele>
        <time>2011-01-23T12:52:59Z</time>
      </trkpt>
      <trkpt lat="43.49627" lon="6.80159">
        <ele>360.63</ele>
        <time>2011-01-23T12:53:13Z</time>
      </trkpt>
      <trkpt lat="43.49643" lon="6.80159">
        <ele>360.15</ele>
        <time>2011-01-23T12:53:28Z</time>
      </trkpt>
      <trkpt lat="43.49651" lon="6.80164">
        <ele>360.15</ele>
        <time>2011-01-23T12:53:40Z</time>
      </trkpt>
      <trkpt lat="43.49653" lon="6.80163">
        <ele>360.15</ele>
        <time>2011-01-23T12:53:51Z</time>
      </trkpt>
      <trkpt lat="43.49652" lon="6.80164">
        <ele>359.67</ele>
        <time>2011-01-23T12:54:07Z</time>
      </trkpt>
      <trkpt lat="43.49652" lon="6.80164">
        <ele>359.67</ele>
        <time>2011-01-23T12:54:34Z</time>
      </trkpt>
      <trkpt lat="43.49652" lon="6.80165">
        <ele>360.15</ele>
        <time>2011-01-23T12:55:00Z</time>
      </trkpt>
      <trkpt lat="43.49652" lon="6.80165">
        <ele>360.15</ele>
        <time>2011-01-23T12:55:23Z</time>
      </trkpt>
      <trkpt lat="43.49652" lon="6.80165">
        <ele>360.15</ele>
        <time>2011-01-23T12:55:53Z</time>
      </trkpt>
      <trkpt lat="43.49652" lon="6.80165">
        <ele>360.15</ele>
        <time>2011-01-23T12:56:19Z</time>
      </trkpt>
      <trkpt lat="43.49651" lon="6.80165">
        <ele>360.15</ele>
        <time>2011-01-23T12:56:49Z</time>
      </trkpt>
      <trkpt lat="43.49651" lon="6.80165">
        <ele>360.15</ele>
        <time>2011-01-23T12:57:20Z</time>
      </trkpt>
      <trkpt lat="43.49651" lon="6.80165">
        <ele>358.71</ele>
        <time>2011-01-23T12:57:24Z</time>
      </trkpt>
      <trkpt lat="43.49651" lon="6.80165">
        <ele>360.15</ele>
        <time>2011-01-23T12:57:26Z</time>
      </trkpt>
      <trkpt lat="43.49651" lon="6.80165">
        <ele>360.15</ele>
        <time>2011-01-23T12:57:55Z</time>
      </trkpt>
    </trkseg>
  </trk>
</gpx>